Home > Products > Valid Products > TAF

000
FTUS45 KSLC 272054 AAA
TAFSLC
TAF AMD
KSLC 272054Z 2721/2824 35007KT P6SM VCSH FEW040 SCT070 SCT110
     FM280000 33007KT P6SM FEW070 SCT100
     FM280300 16007KT P6SM SCT100 BKN120
     FM281900 33007KT P6SM SCT120=



000
FTUS45 KSLC 272054 AAA
TAFSLC
TAF AMD
KSLC 272054Z 2721/2824 35007KT P6SM VCSH FEW040 SCT070 SCT110
     FM280000 33007KT P6SM FEW070 SCT100
     FM280300 16007KT P6SM SCT100 BKN120
     FM281900 33007KT P6SM SCT120=



000
FTUS45 KSLC 271737
TAFENV
TAF
KENV 271737Z 2718/2818 11008KT P6SM FEW120
     FM280400 VRB04KT P6SM SKC
      AMD LTD TO CLD VIS AND WIND=



000
FTUS45 KSLC 271737
TAFCDC
TAF
KCDC 271737Z 2718/2818 28007KT P6SM SCT100 BKN120
     FM280300 VRB04KT P6SM FEW120=



000
FTUS45 KSLC 271737
TAFLGU
TAF
KLGU 271737Z 2718/2818 VRB04KT P6SM BKN120
     FM280600 VRB04KT P6SM FEW120=



000
FTUS45 KSLC 271737
TAFSGU
TAF
KSGU 271737Z 2718/2818 30006KT P6SM SCT070 BKN120
     FM271900 27012KT P6SM SCT120
     FM280300 VRB05KT P6SM SCT120
      AMD LTD TO CLD VIS AND WIND=



000
FTUS45 KSLC 271737
TAFBCE
TAF
KBCE 271737Z 2718/2818 13009KT P6SM SCT120
     FM271900 30012KT P6SM VCSH SCT080 BKN100
     FM280200 33006KT P6SM SCT100 SCT120=



000
FTUS45 KSLC 271737
TAFPVU
TAF
KPVU 271737Z 2718/2818 VRB05KT P6SM VCSH SCT100 BKN120
     FM280300 VRB05KT P6SM FEW120
      AMD LTD TO CLD VIS AND WIND=



000
FTUS45 KSLC 271737
TAFSLC
TAF
KSLC 271737Z 2718/2824 30005KT P6SM VCSH FEW040 SCT070 BKN100
     FM272000 33007KT P6SM VCSH FEW040 BKN070
     FM280000 33007KT P6SM FEW070 SCT100
     FM280300 16007KT P6SM SCT100 BKN120
     FM281900 33007KT P6SM SCT120=



000
FTUS45 KSLC 271737
TAFOGD
TAF
KOGD 271737Z 2718/2818 24006KT P6SM VCSH SCT080 BKN100
     FM280200 17005KT P6SM SCT100 SCT120=



000
FTUS45 KSLC 271737
TAFLGU
TAF
KLGU 271737Z 2718/2818 VRB04KT P6SM BKN120
     FM280600 VRB04KT P6SM FEW120=



000
FTUS45 KSLC 271737
TAFPVU
TAF
KPVU 271737Z 2718/2818 VRB05KT P6SM VCSH SCT100 BKN120
     FM280300 VRB05KT P6SM FEW120
      AMD LTD TO CLD VIS AND WIND=



000
FTUS45 KSLC 271737
TAFSGU
TAF
KSGU 271737Z 2718/2818 30006KT P6SM SCT070 BKN120
     FM271900 27012KT P6SM SCT120
     FM280300 VRB05KT P6SM SCT120
      AMD LTD TO CLD VIS AND WIND=



000
FTUS45 KSLC 271737
TAFENV
TAF
KENV 271737Z 2718/2818 11008KT P6SM FEW120
     FM280400 VRB04KT P6SM SKC
      AMD LTD TO CLD VIS AND WIND=



000
FTUS45 KSLC 271737
TAFOGD
TAF
KOGD 271737Z 2718/2818 24006KT P6SM VCSH SCT080 BKN100
     FM280200 17005KT P6SM SCT100 SCT120=



000
FTUS45 KSLC 271737
TAFCDC
TAF
KCDC 271737Z 2718/2818 28007KT P6SM SCT100 BKN120
     FM280300 VRB04KT P6SM FEW120=



000
FTUS45 KSLC 271737
TAFSLC
TAF
KSLC 271737Z 2718/2824 30005KT P6SM VCSH FEW040 SCT070 BKN100
     FM272000 33007KT P6SM VCSH FEW040 BKN070
     FM280000 33007KT P6SM FEW070 SCT100
     FM280300 16007KT P6SM SCT100 BKN120
     FM281900 33007KT P6SM SCT120=



000
FTUS45 KSLC 271737
TAFBCE
TAF
KBCE 271737Z 2718/2818 13009KT P6SM SCT120
     FM271900 30012KT P6SM VCSH SCT080 BKN100
     FM280200 33006KT P6SM SCT100 SCT120=



000
FTUS45 KSLC 271502 AAB
TAFSLC
TAF AMD
KSLC 271502Z 2715/2818 14005KT P6SM VCSH FEW060 SCT080 BKN120
     FM271800 33007KT P6SM VCSH SCT080 BKN100
     FM280300 16007KT P6SM SCT100 BKN120=



000
FTUS45 KSLC 271502 AAB
TAFSLC
TAF AMD
KSLC 271502Z 2715/2818 14005KT P6SM VCSH FEW060 SCT080 BKN120
     FM271800 33007KT P6SM VCSH SCT080 BKN100
     FM280300 16007KT P6SM SCT100 BKN120=



000
FTUS45 KSLC 271358 AAA
TAFLGU
TAF AMD
KLGU 271358Z 2714/2812 VRB04KT P6SM -SHRA SCT070 BKN090
     FM271600 VRB04KT P6SM VCSH BKN090
     FM272200 VRB04KT P6SM SCT100=



000
FTUS45 KSLC 271358 AAA
TAFLGU
TAF AMD
KLGU 271358Z 2714/2812 VRB04KT P6SM -SHRA SCT070 BKN090
     FM271600 VRB04KT P6SM VCSH BKN090
     FM272200 VRB04KT P6SM SCT100=



000
FTUS45 KSLC 271120
TAFBCE
TAF
KBCE 271120Z 2712/2812 VRB05KT P6SM VCSH SCT040 BKN080
     FM271800 31012KT P6SM VCSH SCT080 BKN100
     FM280300 33006KT P6SM SCT100 SCT120=



000
FTUS45 KSLC 271120
TAFSGU
TAF
KSGU 271120Z 2712/2812 10009KT P6SM SCT070 BKN120
     FM271900 27012KT P6SM SCT120
     FM280300 VRB05KT P6SM SCT120
      AMD LTD TO CLD VIS AND WIND=



000
FTUS45 KSLC 271120
TAFSGU
TAF
KSGU 271120Z 2712/2812 10009KT P6SM SCT070 BKN120
     FM271900 27012KT P6SM SCT120
     FM280300 VRB05KT P6SM SCT120
      AMD LTD TO CLD VIS AND WIND=



000
FTUS45 KSLC 271120
TAFSLC
TAF
KSLC 271120Z 2712/2818 27005KT P6SM VCSH SCT080 BKN100
     FM271300 14005KT P6SM VCSH SCT080 BKN100
     FM272000 33007KT P6SM VCSH SCT080 BKN100
     FM280300 16007KT P6SM SCT100 BKN120=



000
FTUS45 KSLC 271120
TAFPVU
TAF
KPVU 271120Z 2712/2812 VRB04KT P6SM VCSH BKN100 BKN120
     FM271800 32011KT P6SM VCSH SCT100 BKN120
     FM280300 VRB05KT P6SM FEW120
      AMD LTD TO CLD VIS AND WIND=



000
FTUS45 KSLC 271120
TAFLGU
TAF
KLGU 271120Z 2712/2812 VRB04KT P6SM SCT090 BKN100
     FM272200 VRB04KT P6SM SCT100=



000
FTUS45 KSLC 271120
TAFOGD
TAF
KOGD 271120Z 2712/2812 17006KT P6SM SCT080 BKN100
     FM271700 19009KT P6SM VCSH SCT080 BKN100
     FM280300 17005KT P6SM SCT100 SCT120=



000
FTUS45 KSLC 271120
TAFENV
TAF
KENV 271120Z 2712/2812 VRB05KT P6SM BKN100 BKN120
     FM271600 09008KT P6SM FEW120
      AMD LTD TO CLD VIS AND WIND=



000
FTUS45 KSLC 271120
TAFLGU
TAF
KLGU 271120Z 2712/2812 VRB04KT P6SM SCT090 BKN100
     FM272200 VRB04KT P6SM SCT100=



000
FTUS45 KSLC 271120
TAFOGD
TAF
KOGD 271120Z 2712/2812 17006KT P6SM SCT080 BKN100
     FM271700 19009KT P6SM VCSH SCT080 BKN100
     FM280300 17005KT P6SM SCT100 SCT120=



000
FTUS45 KSLC 271120
TAFBCE
TAF
KBCE 271120Z 2712/2812 VRB05KT P6SM VCSH SCT040 BKN080
     FM271800 31012KT P6SM VCSH SCT080 BKN100
     FM280300 33006KT P6SM SCT100 SCT120=



000
FTUS45 KSLC 271120
TAFENV
TAF
KENV 271120Z 2712/2812 VRB05KT P6SM BKN100 BKN120
     FM271600 09008KT P6SM FEW120
      AMD LTD TO CLD VIS AND WIND=



000
FTUS45 KSLC 271120
TAFSLC
TAF
KSLC 271120Z 2712/2818 27005KT P6SM VCSH SCT080 BKN100
     FM271300 14005KT P6SM VCSH SCT080 BKN100
     FM272000 33007KT P6SM VCSH SCT080 BKN100
     FM280300 16007KT P6SM SCT100 BKN120=



000
FTUS45 KSLC 271120
TAFPVU
TAF
KPVU 271120Z 2712/2812 VRB04KT P6SM VCSH BKN100 BKN120
     FM271800 32011KT P6SM VCSH SCT100 BKN120
     FM280300 VRB05KT P6SM FEW120
      AMD LTD TO CLD VIS AND WIND=



000
FTUS45 KSLC 271120
TAFCDC
TAF
KCDC 271120Z 2712/2812 VRB05KT P6SM SCT080 BKN100
     FM271800 24007KT P6SM SCT100 BKN120=



000
FTUS45 KSLC 270905 AAC
TAFSLC
TAF AMD
KSLC 270905Z 2709/2812 15006KT P6SM SCT120
     FM271900 33007KT P6SM VCSH BKN100 BKN120
     FM280300 16007KT P6SM SCT100 BKN120=



000
FTUS45 KSLC 270905 AAC
TAFSLC
TAF AMD
KSLC 270905Z 2709/2812 15006KT P6SM SCT120
     FM271900 33007KT P6SM VCSH BKN100 BKN120
     FM280300 16007KT P6SM SCT100 BKN120=



000
FTUS45 KSLC 270703 AAB
TAFSLC
TAF AMD
KSLC 270703Z 2707/2812 15006KT P6SM SCT120
     FM271900 33007KT P6SM VCSH BKN100 BKN120
     FM280300 16007KT P6SM SCT100 BKN120=



000
FTUS45 KSLC 270703 AAB
TAFSLC
TAF AMD
KSLC 270703Z 2707/2812 15006KT P6SM SCT120
     FM271900 33007KT P6SM VCSH BKN100 BKN120
     FM280300 16007KT P6SM SCT100 BKN120=



000
FTUS45 KSLC 270633 AAA
TAFSGU
TAF AMD
KSGU 270633Z 2707/2806 16006KT P6SM VCSH SCT080 BKN100
     FM271000 VRB05KT P6SM SCT070 BKN120
     FM271900 27012KT P6SM SCT120
     FM280300 VRB05KT P6SM SCT120
      AMD LTD TO CLD VIS AND WIND=



000
FTUS45 KSLC 270633 AAA
TAFSGU
TAF AMD
KSGU 270633Z 2707/2806 16006KT P6SM VCSH SCT080 BKN100
     FM271000 VRB05KT P6SM SCT070 BKN120
     FM271900 27012KT P6SM SCT120
     FM280300 VRB05KT P6SM SCT120
      AMD LTD TO CLD VIS AND WIND=



000
FTUS45 KSLC 270633 AAA
TAFCDC
TAF AMD
KCDC 270633Z 2707/2806 VRB05KT P6SM SCT080 BKN100
     FM271800 24007KT P6SM SCT100 BKN120=



000
FTUS45 KSLC 270524
TAFPVU
TAF
KPVU 270524Z 2706/2806 19010KT P6SM VCSH SCT070 BKN120
     FM270700 VRB04KT P6SM FEW120
     FM271800 27011KT P6SM VCSH BKN100 BKN120
     FM280300 VRB05KT P6SM FEW120
      AMD LTD TO CLD VIS AND WIND=



000
FTUS45 KSLC 270524
TAFSGU
TAF
KSGU 270524Z 2706/2806 10010G15KT P6SM VCSH SCT080 BKN100
     FM271000 VRB05KT P6SM SCT070 BKN120
     FM271900 27012KT P6SM SCT120
     FM280300 VRB05KT P6SM SCT120
      AMD LTD TO CLD VIS AND WIND=



000
FTUS45 KSLC 270524
TAFCDC
TAF
KCDC 270524Z 2706/2806 17020G30KT P6SM -SHRA SCT060 BKN080
     FM271000 VRB05KT P6SM SCT080 BKN100
     FM271800 24007KT P6SM SCT100 BKN120=



000
FTUS45 KSLC 270524
TAFBCE
TAF
KBCE 270524Z 2706/2806 VRB05KT P6SM -SHRA SCT030 BKN040
     FM271800 31012KT P6SM SCT100 BKN120
     FM280300 33006KT P6SM SCT100 BKN120=



000
FTUS45 KSLC 270524
TAFPVU
TAF
KPVU 270524Z 2706/2806 19010KT P6SM VCSH SCT070 BKN120
     FM270700 VRB04KT P6SM FEW120
     FM271800 27011KT P6SM VCSH BKN100 BKN120
     FM280300 VRB05KT P6SM FEW120
      AMD LTD TO CLD VIS AND WIND=



000
FTUS45 KSLC 270524
TAFENV
TAF
KENV 270524Z 2706/2806 28009KT P6SM BKN100 BKN120
     FM271000 VRB05KT P6SM BKN100 BKN120
     FM271600 09008KT P6SM FEW120
      AMD LTD TO CLD VIS AND WIND=



000
FTUS45 KSLC 270524
TAFLGU
TAF
KLGU 270524Z 2706/2806 VRB04KT P6SM SCT090 BKN120=



000
FTUS45 KSLC 270524
TAFOGD
TAF
KOGD 270524Z 2706/2806 17005KT P6SM VCSH BKN100 BKN120
     FM270800 VRB04KT P6SM SCT100 BKN120
     FM271700 19009KT P6SM VCSH SCT100 BKN120
     FM280300 17005KT P6SM SCT100 SCT120=



000
FTUS45 KSLC 270524
TAFSLC
TAF
KSLC 270524Z 2706/2812 17006KT P6SM VCSH SCT070 BKN100
     FM270700 16006KT P6SM SCT120
     FM271900 33007KT P6SM VCSH BKN100 BKN120
     FM280300 16007KT P6SM SCT100 BKN120=



000
FTUS45 KSLC 270524
TAFENV
TAF
KENV 270524Z 2706/2806 28009KT P6SM BKN100 BKN120
     FM271000 VRB05KT P6SM BKN100 BKN120
     FM271600 09008KT P6SM FEW120
      AMD LTD TO CLD VIS AND WIND=



000
FTUS45 KSLC 270524
TAFBCE
TAF
KBCE 270524Z 2706/2806 VRB05KT P6SM -SHRA SCT030 BKN040
     FM271800 31012KT P6SM SCT100 BKN120
     FM280300 33006KT P6SM SCT100 BKN120=



000
FTUS45 KSLC 270524
TAFLGU
TAF
KLGU 270524Z 2706/2806 VRB04KT P6SM SCT090 BKN120=



000
FTUS45 KSLC 270524
TAFSLC
TAF
KSLC 270524Z 2706/2812 17006KT P6SM VCSH SCT070 BKN100
     FM270700 16006KT P6SM SCT120
     FM271900 33007KT P6SM VCSH BKN100 BKN120
     FM280300 16007KT P6SM SCT100 BKN120=



000
FTUS45 KSLC 270524
TAFOGD
TAF
KOGD 270524Z 2706/2806 17005KT P6SM VCSH BKN100 BKN120
     FM270800 VRB04KT P6SM SCT100 BKN120
     FM271700 19009KT P6SM VCSH SCT100 BKN120
     FM280300 17005KT P6SM SCT100 SCT120=



000
FTUS45 KSLC 270524
TAFSGU
TAF
KSGU 270524Z 2706/2806 10010G15KT P6SM VCSH SCT080 BKN100
     FM271000 VRB05KT P6SM SCT070 BKN120
     FM271900 27012KT P6SM SCT120
     FM280300 VRB05KT P6SM SCT120
      AMD LTD TO CLD VIS AND WIND=



000
FTUS45 KSLC 270524
TAFCDC
TAF
KCDC 270524Z 2706/2806 17020G30KT P6SM -SHRA SCT060 BKN080
     FM271000 VRB05KT P6SM SCT080 BKN100
     FM271800 24007KT P6SM SCT100 BKN120=



000
FTUS45 KSLC 270347 AAD
TAFLGU
TAF AMD
KLGU 270347Z 2704/2724 17012KT P6SM VCSH SCT090 BKN120
     FM270500 VRB04KT P6SM VCSH SCT090 BKN120
     FM271000 VRB04KT P6SM FEW120=



000
FTUS45 KSLC 270347 AAD
TAFLGU
TAF AMD
KLGU 270347Z 2704/2724 17012KT P6SM VCSH SCT090 BKN120
     FM270500 VRB04KT P6SM VCSH SCT090 BKN120
     FM271000 VRB04KT P6SM FEW120=



000
FTUS45 KSLC 270347 AAD
TAFENV
TAF AMD
KENV 270347Z 2704/2724 07010KT P6SM VCSH FEW070 BKN080
     FM270600 VRB04KT P6SM FEW120
     FM271600 09008KT P6SM FEW120
      AMD LTD TO CLD VIS AND WIND=



000
FTUS45 KSLC 270347 AAD
TAFENV
TAF AMD
KENV 270347Z 2704/2724 07010KT P6SM VCSH FEW070 BKN080
     FM270600 VRB04KT P6SM FEW120
     FM271600 09008KT P6SM FEW120
      AMD LTD TO CLD VIS AND WIND=



000
FTUS45 KSLC 270316 AAC
TAFSGU
TAF AMD
KSGU 270316Z 2703/2724 03015G25KT P6SM -TSRA OVC090CB
     FM270500 VRB04KT P6SM SCT080 BKN120
     FM271700 27012KT P6SM SCT120
      AMD LTD TO CLD VIS AND WIND=



000
FTUS45 KSLC 270316 AAC
TAFSGU
TAF AMD
KSGU 270316Z 2703/2724 03015G25KT P6SM -TSRA OVC090CB
     FM270500 VRB04KT P6SM SCT080 BKN120
     FM271700 27012KT P6SM SCT120
      AMD LTD TO CLD VIS AND WIND=



000
FTUS45 KSLC 270315 AAC
TAFENV
TAF AMD
KENV 270315Z 2703/2724 08020G30KT P6SM TSRA FEW070CB BKN080
     FM270600 VRB04KT P6SM FEW120
     FM271600 09008KT P6SM FEW120
      AMD LTD TO CLD VIS AND WIND=



000
FTUS45 KSLC 270315 AAC
TAFENV
TAF AMD
KENV 270315Z 2703/2724 08020G30KT P6SM TSRA FEW070CB BKN080
     FM270600 VRB04KT P6SM FEW120
     FM271600 09008KT P6SM FEW120
      AMD LTD TO CLD VIS AND WIND=



000
FTUS45 KSLC 270315 AAB
TAFCDC
TAF AMD
KCDC 270315Z 2703/2724 21008KT P6SM VCTS SCT100CB
     FM270400 VRB04KT P6SM FEW120
     FM271800 30007KT P6SM FEW120=



000
FTUS45 KSLC 270315 AAB
TAFCDC
TAF AMD
KCDC 270315Z 2703/2724 21008KT P6SM VCTS SCT100CB
     FM270400 VRB04KT P6SM FEW120
     FM271800 30007KT P6SM FEW120=



000
FTUS45 KSLC 270257 AAC
TAFSLC
TAF AMD
KSLC 270257Z 2703/2806 17006KT P6SM VCSH SCT070 BKN100
     FM270700 16006KT P6SM SCT120
     FM271700 21007KT P6SM SCT120=



000
FTUS45 KSLC 270257 AAC
TAFSLC
TAF AMD
KSLC 270257Z 2703/2806 17006KT P6SM VCSH SCT070 BKN100
     FM270700 16006KT P6SM SCT120
     FM271700 21007KT P6SM SCT120=



000
FTUS45 KSLC 270256 AAB
TAFSGU
TAF AMD
KSGU 270256Z 2703/2724 36015G25KT P6SM -TSRA OVC090CB
     FM270500 VRB04KT P6SM SCT080 BKN120
     FM271700 27012KT P6SM SCT120
      AMD LTD TO CLD VIS AND WIND=



000
FTUS45 KSLC 270256 AAB
TAFSGU
TAF AMD
KSGU 270256Z 2703/2724 36015G25KT P6SM -TSRA OVC090CB
     FM270500 VRB04KT P6SM SCT080 BKN120
     FM271700 27012KT P6SM SCT120
      AMD LTD TO CLD VIS AND WIND=



000
FTUS45 KSLC 270245 AAB
TAFENV
TAF AMD
KENV 270245Z 2703/2724 28009KT P6SM TSRA FEW070CB BKN080
     FM270330 30009KT P6SM VCSH SCT080
     FM270900 VRB04KT P6SM FEW120
     FM271600 09008KT P6SM FEW120
      AMD LTD TO CLD VIS AND WIND=



000
FTUS45 KSLC 270245 AAB
TAFENV
TAF AMD
KENV 270245Z 2703/2724 28009KT P6SM TSRA FEW070CB BKN080
     FM270330 30009KT P6SM VCSH SCT080
     FM270900 VRB04KT P6SM FEW120
     FM271600 09008KT P6SM FEW120
      AMD LTD TO CLD VIS AND WIND=



000
FTUS45 KSLC 270239 AAA
TAFSGU
TAF AMD
KSGU 270239Z 2703/2724 36015G25KT P6SM TSRA OVC090CB
     FM270300 36012KT P6SM VCTS OVC090CB
      TEMPO 2703/2704 VRB20G30KT 6SM TSRA
     FM270500 VRB04KT P6SM SCT080 BKN120
     FM271700 27012KT P6SM SCT120
      AMD LTD TO CLD VIS AND WIND=



000
FTUS45 KSLC 270239 AAA
TAFSGU
TAF AMD
KSGU 270239Z 2703/2724 36015G25KT P6SM TSRA OVC090CB
     FM270300 36012KT P6SM VCTS OVC090CB
      TEMPO 2703/2704 VRB20G30KT 6SM TSRA
     FM270500 VRB04KT P6SM SCT080 BKN120
     FM271700 27012KT P6SM SCT120
      AMD LTD TO CLD VIS AND WIND=



000
FTUS45 KSLC 270205 AAC
TAFLGU
TAF AMD
KLGU 270205Z 2702/2724 15010G18KT P6SM VCSH SCT090 BKN120
     FM270300 VRB04KT P6SM VCSH SCT090 BKN120
     FM271000 VRB04KT P6SM FEW120=



000
FTUS45 KSLC 270205 AAC
TAFLGU
TAF AMD
KLGU 270205Z 2702/2724 15010G18KT P6SM VCSH SCT090 BKN120
     FM270300 VRB04KT P6SM VCSH SCT090 BKN120
     FM271000 VRB04KT P6SM FEW120=



000
FTUS45 KSLC 270125 AAA
TAFCDC
TAF AMD
KCDC 270125Z 2701/2724 21008KT P6SM VCTS SCT100CB
      TEMPO 2701/2704 VRB20G30KT 5SM -TSRA BKN040CB
     FM270400 VRB04KT P6SM FEW120
     FM271800 30007KT P6SM FEW120=



000
FTUS45 KSLC 270125 AAA
TAFCDC
TAF AMD
KCDC 270125Z 2701/2724 21008KT P6SM VCTS SCT100CB
      TEMPO 2701/2704 VRB20G30KT 5SM -TSRA BKN040CB
     FM270400 VRB04KT P6SM FEW120
     FM271800 30007KT P6SM FEW120=



000
FTUS45 KSLC 270124 AAA
TAFPVU
TAF AMD
KPVU 270124Z 2701/2724 19010KT P6SM VCSH SCT070 BKN120
      TEMPO 2701/2703 29010G18KT
     FM270700 VRB04KT P6SM FEW120
     FM271800 27011KT P6SM FEW120
      AMD LTD TO CLD VIS AND WIND=



000
FTUS45 KSLC 270124 AAA
TAFPVU
TAF AMD
KPVU 270124Z 2701/2724 19010KT P6SM VCSH SCT070 BKN120
      TEMPO 2701/2703 29010G18KT
     FM270700 VRB04KT P6SM FEW120
     FM271800 27011KT P6SM FEW120
      AMD LTD TO CLD VIS AND WIND=



000
FTUS45 KSLC 270121 AAB
TAFSLC
TAF AMD
KSLC 270121Z 2701/2806 13006KT P6SM VCSH FEW070 SCT090
     FM270300 15006KT P6SM VCSH SCT060 BKN100
     FM270700 16006KT P6SM SCT120
     FM271700 21007KT P6SM SCT120=



000
FTUS45 KSLC 270121 AAB
TAFSLC
TAF AMD
KSLC 270121Z 2701/2806 13006KT P6SM VCSH FEW070 SCT090
     FM270300 15006KT P6SM VCSH SCT060 BKN100
     FM270700 16006KT P6SM SCT120
     FM271700 21007KT P6SM SCT120=



000
FTUS45 KSLC 270116 AAA
TAFOGD
TAF AMD
KOGD 270116Z 2701/2724 08007KT P6SM VCSH FEW100 BKN120
     FM270400 17005KT P6SM SCT100 BKN120
     FM270800 VRB04KT P6SM SCT120
     FM271700 19009KT P6SM FEW120=



000
FTUS45 KSLC 270116 AAA
TAFOGD
TAF AMD
KOGD 270116Z 2701/2724 08007KT P6SM VCSH FEW100 BKN120
     FM270400 17005KT P6SM SCT100 BKN120
     FM270800 VRB04KT P6SM SCT120
     FM271700 19009KT P6SM FEW120=



000
FTUS45 KSLC 270111 AAB
TAFLGU
TAF AMD
KLGU 270111Z 2701/2724 32007KT P6SM VCSH SCT090 BKN120
      TEMPO 2701/2702 11020G30KT
     FM270300 VRB04KT P6SM VCSH SCT090 BKN120
     FM271000 VRB04KT P6SM FEW120=



000
FTUS45 KSLC 270111 AAB
TAFLGU
TAF AMD
KLGU 270111Z 2701/2724 32007KT P6SM VCSH SCT090 BKN120
      TEMPO 2701/2702 11020G30KT
     FM270300 VRB04KT P6SM VCSH SCT090 BKN120
     FM271000 VRB04KT P6SM FEW120=



000
FTUS45 KSLC 270107 AAA
TAFENV
TAF AMD
KENV 270107Z 2701/2724 29010G16KT P6SM VCSH SCT080 BKN120
     FM270300 36009KT P6SM SCT020
     FM270900 VRB04KT P6SM FEW120
     FM271600 09008KT P6SM FEW120
      AMD LTD TO CLD VIS AND WIND=



000
FTUS45 KSLC 270107 AAA
TAFENV
TAF AMD
KENV 270107Z 2701/2724 29010G16KT P6SM VCSH SCT080 BKN120
     FM270300 36009KT P6SM SCT020
     FM270900 VRB04KT P6SM FEW120
     FM271600 09008KT P6SM FEW120
      AMD LTD TO CLD VIS AND WIND=



000
FTUS45 KSLC 270010 AAA
TAFLGU
TAF AMD
KLGU 270010Z 2700/2724 32007KT P6SM VCTS SCT100CB
      TEMPO 2700/2702 VRB18G28KT -TSRA BKN070CB
     FM270300 VRB04KT P6SM VCSH SCT070 BKN120
     FM271000 VRB04KT P6SM FEW120=



000
FTUS45 KSLC 270010 AAA
TAFLGU
TAF AMD
KLGU 270010Z 2700/2724 32007KT P6SM VCTS SCT100CB
      TEMPO 2700/2702 VRB18G28KT -TSRA BKN070CB
     FM270300 VRB04KT P6SM VCSH SCT070 BKN120
     FM271000 VRB04KT P6SM FEW120=



000
FTUS45 KSLC 262338
TAFLGU
TAF
KLGU 262338Z 2700/2724 32007KT P6SM VCTS SCT100CB
     FM270300 VRB04KT P6SM VCSH SCT070 BKN120
     FM271000 VRB04KT P6SM FEW120=



000
FTUS45 KSLC 262338
TAFENV
TAF
KENV 262338Z 2700/2724 23010KT P6SM VCSH SCT120
     FM270300 36009KT P6SM SCT020
     FM270900 VRB04KT P6SM FEW120
     FM271600 09008KT P6SM FEW120
      AMD LTD TO CLD VIS AND WIND=



000
FTUS45 KSLC 262338
TAFOGD
TAF
KOGD 262338Z 2700/2724 13011KT P6SM VCTS SCT070CB BKN150
     FM270400 17005KT P6SM SCT070 BKN120
     FM270800 VRB04KT P6SM SCT120
     FM271700 19009KT P6SM FEW120=



000
FTUS45 KSLC 262338
TAFBCE
TAF
KBCE 262338Z 2700/2724 18006KT P6SM VCTS SCT060CB BKN100
      TEMPO 2700/2702 VRB20G30KT -TSRA BKN060CB
     FM270200 VRB05KT P6SM SCT060 BKN100
     FM271800 31012KT P6SM SCT120=



000
FTUS45 KSLC 262338
TAFSLC
TAF
KSLC 262338Z 2700/2806 11010KT P6SM VCTS FEW070CB SCT150
      TEMPO 2700/2702 22020G30KT 6SM -TSRA BKN060CB
     FM270300 15006KT P6SM VCSH SCT060 BKN100
     FM270700 16006KT P6SM SCT120
     FM271700 21007KT P6SM SCT120=



000
FTUS45 KSLC 262338
TAFSGU
TAF
KSGU 262338Z 2700/2724 05016KT P6SM VCTS SCT100CB
     FM270500 VRB04KT P6SM SCT080 BKN120
     FM271700 27012KT P6SM SCT120
      AMD LTD TO CLD VIS AND WIND=



000
FTUS45 KSLC 262338
TAFCDC
TAF
KCDC 262338Z 2700/2724 21015G22KT P6SM VCTS SCT100CB
      TEMPO 2700/2704 VRB20G30KT 5SM -TSRA BKN040CB
     FM270400 VRB04KT P6SM FEW120
     FM271800 30007KT P6SM FEW120=



000
FTUS45 KSLC 262338
TAFPVU
TAF
KPVU 262338Z 2700/2724 22010KT P6SM SCT070 BKN100
     FM270200 19010KT P6SM VCSH SCT070 BKN120
     FM270700 VRB04KT P6SM FEW120
     FM271800 27011KT P6SM FEW120
      AMD LTD TO CLD VIS AND WIND=



000
FTUS45 KSLC 262338
TAFSGU
TAF
KSGU 262338Z 2700/2724 05016KT P6SM VCTS SCT100CB
     FM270500 VRB04KT P6SM SCT080 BKN120
     FM271700 27012KT P6SM SCT120
      AMD LTD TO CLD VIS AND WIND=



000
FTUS45 KSLC 262338
TAFBCE
TAF
KBCE 262338Z 2700/2724 18006KT P6SM VCTS SCT060CB BKN100
      TEMPO 2700/2702 VRB20G30KT -TSRA BKN060CB
     FM270200 VRB05KT P6SM SCT060 BKN100
     FM271800 31012KT P6SM SCT120=



000
FTUS45 KSLC 262338
TAFCDC
TAF
KCDC 262338Z 2700/2724 21015G22KT P6SM VCTS SCT100CB
      TEMPO 2700/2704 VRB20G30KT 5SM -TSRA BKN040CB
     FM270400 VRB04KT P6SM FEW120
     FM271800 30007KT P6SM FEW120=



000
FTUS45 KSLC 262338
TAFLGU
TAF
KLGU 262338Z 2700/2724 32007KT P6SM VCTS SCT100CB
     FM270300 VRB04KT P6SM VCSH SCT070 BKN120
     FM271000 VRB04KT P6SM FEW120=



000
FTUS45 KSLC 262338
TAFOGD
TAF
KOGD 262338Z 2700/2724 13011KT P6SM VCTS SCT070CB BKN150
     FM270400 17005KT P6SM SCT070 BKN120
     FM270800 VRB04KT P6SM SCT120
     FM271700 19009KT P6SM FEW120=



000
FTUS45 KSLC 262338
TAFPVU
TAF
KPVU 262338Z 2700/2724 22010KT P6SM SCT070 BKN100
     FM270200 19010KT P6SM VCSH SCT070 BKN120
     FM270700 VRB04KT P6SM FEW120
     FM271800 27011KT P6SM FEW120
      AMD LTD TO CLD VIS AND WIND=



000
FTUS45 KSLC 262338
TAFENV
TAF
KENV 262338Z 2700/2724 23010KT P6SM VCSH SCT120
     FM270300 36009KT P6SM SCT020
     FM270900 VRB04KT P6SM FEW120
     FM271600 09008KT P6SM FEW120
      AMD LTD TO CLD VIS AND WIND=



000
FTUS45 KSLC 262338
TAFSLC
TAF
KSLC 262338Z 2700/2806 11010KT P6SM VCTS FEW070CB SCT150
      TEMPO 2700/2702 22020G30KT 6SM -TSRA BKN060CB
     FM270300 15006KT P6SM VCSH SCT060 BKN100
     FM270700 16006KT P6SM SCT120
     FM271700 21007KT P6SM SCT120=



000
FTUS45 KSLC 262134 AAA
TAFSGU
TAF AMD
KSGU 262134Z 2622/2718 22015G25KT P6SM VCTS BKN090CB
     FM270200 VRB04KT P6SM SCT080 BKN120
      AMD LTD TO CLD VIS AND WIND=



000
FTUS45 KSLC 262134 AAA
TAFSGU
TAF AMD
KSGU 262134Z 2622/2718 22015G25KT P6SM VCTS BKN090CB
     FM270200 VRB04KT P6SM SCT080 BKN120
      AMD LTD TO CLD VIS AND WIND=



000
FTUS45 KSLC 262101 AAC
TAFSLC
TAF AMD
KSLC 262101Z 2621/2724 27010KT P6SM VCTS FEW070CB SCT150
      TEMPO 2621/2623 28020G30KT -SHRA BKN100
     FM262300 24010KT P6SM VCTS SCT070CB BKN120
     FM270300 15006KT P6SM VCSH SCT060 BKN100
     FM270700 16006KT P6SM SCT120=



000
FTUS45 KSLC 262101 AAC
TAFSLC
TAF AMD
KSLC 262101Z 2621/2724 27010KT P6SM VCTS FEW070CB SCT150
      TEMPO 2621/2623 28020G30KT -SHRA BKN100
     FM262300 24010KT P6SM VCTS SCT070CB BKN120
     FM270300 15006KT P6SM VCSH SCT060 BKN100
     FM270700 16006KT P6SM SCT120=



000
FTUS45 KSLC 262047 AAB
TAFPVU
TAF AMD
KPVU 262047Z 2621/2718 28010KT P6SM VCTS SCT070CB BKN100
      TEMPO 2621/2623 VRB20G30KT 5SM -TSRA BKN050CB
     FM270300 19010KT P6SM SCT070 BKN120
     FM270700 VRB04KT P6SM FEW120
      AMD LTD TO CLD VIS AND WIND=



000
FTUS45 KSLC 262047 AAB
TAFPVU
TAF AMD
KPVU 262047Z 2621/2718 28010KT P6SM VCTS SCT070CB BKN100
      TEMPO 2621/2623 VRB20G30KT 5SM -TSRA BKN050CB
     FM270300 19010KT P6SM SCT070 BKN120
     FM270700 VRB04KT P6SM FEW120
      AMD LTD TO CLD VIS AND WIND=



000
FTUS45 KSLC 262044 AAB
TAFSLC
TAF AMD
KSLC 262044Z 2621/2724 24008KT P6SM VCTS FEW070CB SCT150
     FM262300 24010KT P6SM VCTS SCT070CB BKN120
     FM270300 15006KT P6SM VCSH SCT060 BKN100
     FM270700 16006KT P6SM SCT120=



000
FTUS45 KSLC 261904 AAA
TAFCDC
TAF AMD
KCDC 261904Z 2619/2718 21015G22KT P6SM VCTS SCT100CB
      TEMPO 2619/2621 VRB20G30KT 5SM -TSRA BKN040CB
     FM262100 20011G18KT P6SM VCSH SCT070 BKN120
     FM270300 20009KT P6SM SCT070 BKN120
     FM270600 VRB04KT P6SM FEW120=



000
FTUS45 KSLC 261904 AAA
TAFCDC
TAF AMD
KCDC 261904Z 2619/2718 21015G22KT P6SM VCTS SCT100CB
      TEMPO 2619/2621 VRB20G30KT 5SM -TSRA BKN040CB
     FM262100 20011G18KT P6SM VCSH SCT070 BKN120
     FM270300 20009KT P6SM SCT070 BKN120
     FM270600 VRB04KT P6SM FEW120=



000
FTUS45 KSLC 261849 AAA
TAFPVU
TAF AMD
KPVU 261849Z 2619/2718 28006KT P6SM VCSH FEW060 SCT100
     FM262100 28010KT P6SM VCSH SCT070 BKN100
     FM270300 19010KT P6SM SCT070 BKN120
     FM270700 VRB04KT P6SM FEW120
      AMD LTD TO CLD VIS AND WIND=



000
FTUS45 KSLC 261849 AAA
TAFPVU
TAF AMD
KPVU 261849Z 2619/2718 28006KT P6SM VCSH FEW060 SCT100
     FM262100 28010KT P6SM VCSH SCT070 BKN100
     FM270300 19010KT P6SM SCT070 BKN120
     FM270700 VRB04KT P6SM FEW120
      AMD LTD TO CLD VIS AND WIND=



000
FTUS45 KSLC 261737
TAFBCE
TAF
KBCE 261737Z 2618/2718 20015G20KT P6SM VCTS SCT060CB BKN100
      TEMPO 2618/2622 VRB20G30KT -TSRA BKN060CB
     FM270200 VRB05KT P6SM SCT060 BKN100=



000
FTUS45 KSLC 261737
TAFCDC
TAF
KCDC 261737Z 2618/2718 19013G20KT P6SM FEW080 BKN200
     FM262000 20011G18KT P6SM VCSH SCT070 BKN120
     FM270300 20009KT P6SM SCT070 BKN120
     FM270600 VRB04KT P6SM FEW120=



000
FTUS45 KSLC 261737
TAFSGU
TAF
KSGU 261737Z 2618/2718 16009KT P6SM BKN200
     FM262000 22015G25KT P6SM VCSH SCT080 BKN120
     FM270200 VRB04KT P6SM SCT080 BKN120
      AMD LTD TO CLD VIS AND WIND=



000
FTUS45 KSLC 261737
TAFPVU
TAF
KPVU 261737Z 2618/2718 28006KT P6SM FEW060 SCT150
     FM262100 28010KT P6SM VCSH SCT070 BKN100
     FM270300 19010KT P6SM SCT070 BKN120
     FM270700 VRB04KT P6SM FEW120
      AMD LTD TO CLD VIS AND WIND=



000
FTUS45 KSLC 261737
TAFENV
TAF
KENV 261737Z 2618/2718 10006KT P6SM SCT150
     FM262200 10010KT P6SM VCSH BKN100
     FM270300 36009KT P6SM SCT070 BKN120
     FM270900 VRB04KT P6SM FEW120
     FM271600 09008KT P6SM FEW120
      AMD LTD TO CLD VIS AND WIND=



000
FTUS45 KSLC 261737
TAFLGU
TAF
KLGU 261737Z 2618/2718 VRB04KT P6SM SCT150
     FM262100 32007KT P6SM VCSH SCT100
     FM270300 VRB04KT P6SM VCSH SCT070 BKN120
     FM271000 VRB04KT P6SM FEW120=



000
FTUS45 KSLC 261737
TAFCDC
TAF
KCDC 261737Z 2618/2718 19013G20KT P6SM FEW080 BKN200
     FM262000 20011G18KT P6SM VCSH SCT070 BKN120
     FM270300 20009KT P6SM SCT070 BKN120
     FM270600 VRB04KT P6SM FEW120=



000
FTUS45 KSLC 261737
TAFOGD
TAF
KOGD 261737Z 2618/2718 VRB04KT P6SM SCT150
     FM262300 32007KT P6SM VCSH SCT070 BKN120
     FM270300 17008KT P6SM SCT070 BKN120
     FM270800 VRB04KT P6SM SCT120=



000
FTUS45 KSLC 261737
TAFBCE
TAF
KBCE 261737Z 2618/2718 20015G20KT P6SM VCTS SCT060CB BKN100
      TEMPO 2618/2622 VRB20G30KT -TSRA BKN060CB
     FM270200 VRB05KT P6SM SCT060 BKN100=



000
FTUS45 KSLC 261737
TAFSGU
TAF
KSGU 261737Z 2618/2718 16009KT P6SM BKN200
     FM262000 22015G25KT P6SM VCSH SCT080 BKN120
     FM270200 VRB04KT P6SM SCT080 BKN120
      AMD LTD TO CLD VIS AND WIND=



000
FTUS45 KSLC 261737
TAFSLC
TAF
KSLC 261737Z 2618/2724 34007KT P6SM FEW080 SCT120
     FM262200 34010KT P6SM VCSH SCT070 BKN120
     FM270300 15006KT P6SM VCSH SCT060 BKN100
     FM270700 16006KT P6SM SCT120=



000
FTUS45 KSLC 261737
TAFPVU
TAF
KPVU 261737Z 2618/2718 28006KT P6SM FEW060 SCT150
     FM262100 28010KT P6SM VCSH SCT070 BKN100
     FM270300 19010KT P6SM SCT070 BKN120
     FM270700 VRB04KT P6SM FEW120
      AMD LTD TO CLD VIS AND WIND=



000
FTUS45 KSLC 261737
TAFLGU
TAF
KLGU 261737Z 2618/2718 VRB04KT P6SM SCT150
     FM262100 32007KT P6SM VCSH SCT100
     FM270300 VRB04KT P6SM VCSH SCT070 BKN120
     FM271000 VRB04KT P6SM FEW120=



000
FTUS45 KSLC 261737
TAFSLC
TAF
KSLC 261737Z 2618/2724 34007KT P6SM FEW080 SCT120
     FM262200 34010KT P6SM VCSH SCT070 BKN120
     FM270300 15006KT P6SM VCSH SCT060 BKN100
     FM270700 16006KT P6SM SCT120=



000
FTUS45 KSLC 261737
TAFENV
TAF
KENV 261737Z 2618/2718 10006KT P6SM SCT150
     FM262200 10010KT P6SM VCSH BKN100
     FM270300 36009KT P6SM SCT070 BKN120
     FM270900 VRB04KT P6SM FEW120
     FM271600 09008KT P6SM FEW120
      AMD LTD TO CLD VIS AND WIND=



000
FTUS45 KSLC 261737
TAFOGD
TAF
KOGD 261737Z 2618/2718 VRB04KT P6SM SCT150
     FM262300 32007KT P6SM VCSH SCT070 BKN120
     FM270300 17008KT P6SM SCT070 BKN120
     FM270800 VRB04KT P6SM SCT120=



000
FTUS45 KSLC 261509 AAA
TAFSLC
TAF AMD
KSLC 261509Z 2615/2718 35008KT P6SM SCT080 SCT120 BKN200
     FM261800 34009KT P6SM VCSH SCT070 BKN120
     FM270300 15006KT P6SM VCSH SCT060 BKN100=



000
FTUS45 KSLC 261509 AAA
TAFSLC
TAF AMD
KSLC 261509Z 2615/2718 35008KT P6SM SCT080 SCT120 BKN200
     FM261800 34009KT P6SM VCSH SCT070 BKN120
     FM270300 15006KT P6SM VCSH SCT060 BKN100=



000
FTUS45 KSLC 261134
TAFSLC
TAF
KSLC 261134Z 2612/2718 17010KT P6SM SCT080 BKN120
     FM261800 34009KT P6SM VCSH SCT070 BKN120
     FM270300 15006KT P6SM VCSH SCT060 BKN100=



000
FTUS45 KSLC 261134
TAFSLC
TAF
KSLC 261134Z 2612/2718 17010KT P6SM SCT080 BKN120
     FM261800 34009KT P6SM VCSH SCT070 BKN120
     FM270300 15006KT P6SM VCSH SCT060 BKN100=



000
FTUS45 KSLC 261120
TAFCDC
TAF
KCDC 261120Z 2612/2712 20010KT P6SM FEW080 BKN200
     FM261700 20011G18KT P6SM VCSH SCT070 BKN120
     FM270300 20009KT P6SM SCT070 BKN120=



000
FTUS45 KSLC 261120
TAFENV
TAF
KENV 261120Z 2612/2712 VRB05KT P6SM VCSH SCT080 BKN140
     FM261500 10006KT P6SM VCSH SCT070 BKN120
     FM270300 36009KT P6SM SCT070 BKN120
      AMD LTD TO CLD VIS AND WIND=



000
FTUS45 KSLC 261120
TAFPVU
TAF
KPVU 261120Z 2612/2712 VRB04KT P6SM SCT080 BKN150
     FM261900 25006KT P6SM VCSH SCT070 BKN120
     FM270300 19010KT P6SM SCT070 BKN120
      AMD LTD TO CLD VIS AND WIND=



000
FTUS45 KSLC 261120
TAFBCE
TAF
KBCE 261120Z 2612/2712 22008KT P6SM SCT070 BKN200
     FM261700 17011G18KT P6SM VCTS SCT060CB BKN100
      TEMPO 2618/2622 VRB20G30KT -TSRA BKN060CB
     FM270200 VRB05KT P6SM SCT060 BKN100=



000
FTUS45 KSLC 261120
TAFSGU
TAF
KSGU 261120Z 2612/2712 VRB04KT P6SM BKN200
     FM261900 22015G25KT P6SM VCSH SCT080 BKN120
     FM270200 VRB04KT P6SM SCT080 BKN120
      AMD LTD TO CLD VIS AND WIND=



000
FTUS45 KSLC 261120
TAFSLC
TAF
KSLC 261120Z 2612/2718 03012KT P6SM SCT080 BKN120
     FM261215 17010KT P6SM SCT080 BKN120
     FM261800 34009KT P6SM VCSH SCT070 BKN120
     FM270300 15006KT P6SM VCSH SCT060 BKN100=



000
FTUS45 KSLC 261120
TAFSLC
TAF
KSLC 261120Z 2612/2718 03012KT P6SM SCT080 BKN120
     FM261215 17010KT P6SM SCT080 BKN120
     FM261800 34009KT P6SM VCSH SCT070 BKN120
     FM270300 15006KT P6SM VCSH SCT060 BKN100=



000
FTUS45 KSLC 261120
TAFLGU
TAF
KLGU 261120Z 2612/2712 VRB04KT P6SM SCT070 BKN100
     FM261800 VRB04KT P6SM VCSH SCT070 BKN120
     FM270300 VRB04KT P6SM SCT070 BKN120=



000
FTUS45 KSLC 261120
TAFOGD
TAF
KOGD 261120Z 2612/2712 17008KT P6SM VCSH SCT080 BKN100
     FM261900 32007KT P6SM VCSH SCT070 BKN120
     FM270300 17008KT P6SM SCT070 BKN120=



000
FTUS45 KSLC 261120
TAFOGD
TAF
KOGD 261120Z 2612/2712 17008KT P6SM VCSH SCT080 BKN100
     FM261900 32007KT P6SM VCSH SCT070 BKN120
     FM270300 17008KT P6SM SCT070 BKN120=



000
FTUS45 KSLC 261120
TAFLGU
TAF
KLGU 261120Z 2612/2712 VRB04KT P6SM SCT070 BKN100
     FM261800 VRB04KT P6SM VCSH SCT070 BKN120
     FM270300 VRB04KT P6SM SCT070 BKN120=



000
FTUS45 KSLC 261120
TAFPVU
TAF
KPVU 261120Z 2612/2712 VRB04KT P6SM SCT080 BKN150
     FM261900 25006KT P6SM VCSH SCT070 BKN120
     FM270300 19010KT P6SM SCT070 BKN120
      AMD LTD TO CLD VIS AND WIND=



000
FTUS45 KSLC 261120
TAFCDC
TAF
KCDC 261120Z 2612/2712 20010KT P6SM FEW080 BKN200
     FM261700 20011G18KT P6SM VCSH SCT070 BKN120
     FM270300 20009KT P6SM SCT070 BKN120=



000
FTUS45 KSLC 261120
TAFBCE
TAF
KBCE 261120Z 2612/2712 22008KT P6SM SCT070 BKN200
     FM261700 17011G18KT P6SM VCTS SCT060CB BKN100
      TEMPO 2618/2622 VRB20G30KT -TSRA BKN060CB
     FM270200 VRB05KT P6SM SCT060 BKN100=



000
FTUS45 KSLC 261120
TAFENV
TAF
KENV 261120Z 2612/2712 VRB05KT P6SM VCSH SCT080 BKN140
     FM261500 10006KT P6SM VCSH SCT070 BKN120
     FM270300 36009KT P6SM SCT070 BKN120
      AMD LTD TO CLD VIS AND WIND=



000
FTUS45 KSLC 261120
TAFSGU
TAF
KSGU 261120Z 2612/2712 VRB04KT P6SM BKN200
     FM261900 22015G25KT P6SM VCSH SCT080 BKN120
     FM270200 VRB04KT P6SM SCT080 BKN120
      AMD LTD TO CLD VIS AND WIND=



000
FTUS45 KSLC 261021 AAB
TAFOGD
TAF AMD
KOGD 261021Z 2610/2706 20010KT P6SM VCSH SCT080 BKN100
     FM261100 17008KT P6SM VCSH SCT080 BKN100
     FM261900 32007KT P6SM VCSH SCT070 BKN120
     FM270300 17008KT P6SM SCT070 BKN120=



000
FTUS45 KSLC 261021 AAC
TAFSLC
TAF AMD
KSLC 261021Z 2610/2712 30010KT P6SM VCSH SCT080 BKN120
     FM261130 17010KT P6SM SCT080 BKN120
     FM261800 34009KT P6SM VCSH SCT070 BKN120
     FM270300 15006KT P6SM VCSH SCT060 BKN100=



000
FTUS45 KSLC 261021 AAC
TAFSLC
TAF AMD
KSLC 261021Z 2610/2712 30010KT P6SM VCSH SCT080 BKN120
     FM261130 17010KT P6SM SCT080 BKN120
     FM261800 34009KT P6SM VCSH SCT070 BKN120
     FM270300 15006KT P6SM VCSH SCT060 BKN100=



000
FTUS45 KSLC 261021 AAB
TAFOGD
TAF AMD
KOGD 261021Z 2610/2706 20010KT P6SM VCSH SCT080 BKN100
     FM261100 17008KT P6SM VCSH SCT080 BKN100
     FM261900 32007KT P6SM VCSH SCT070 BKN120
     FM270300 17008KT P6SM SCT070 BKN120=



000
FTUS45 KSLC 261009 AAE
TAFSLC
TAF AMD
KSLC 261009Z 2610/2712 24009KT P6SM VCTS SCT080CB BKN120
     FM261030 24007KT P6SM VCSH SCT080 BKN120
     FM261130 17010KT P6SM SCT080 BKN120
     FM261800 34009KT P6SM VCSH SCT070 BKN120
     FM270300 15006KT P6SM VCSH SCT060 BKN100=



000
FTUS45 KSLC 261009 AAE
TAFSLC
TAF AMD
KSLC 261009Z 2610/2712 24009KT P6SM VCTS SCT080CB BKN120
     FM261030 24007KT P6SM VCSH SCT080 BKN120
     FM261130 17010KT P6SM SCT080 BKN120
     FM261800 34009KT P6SM VCSH SCT070 BKN120
     FM270300 15006KT P6SM VCSH SCT060 BKN100=



000
FTUS45 KSLC 260946 AAD
TAFSLC
TAF AMD
KSLC 260946Z 2610/2712 24009KT P6SM -TSRA SCT080CB BKN120
     FM261015 16007KT P6SM VCSH SCT080 BKN120
     FM261800 34009KT P6SM VCSH SCT070 BKN120
     FM270300 15006KT P6SM VCSH SCT060 BKN100=



000
FTUS45 KSLC 260906 AAC
TAFSLC
TAF AMD
KSLC 260906Z 2609/2712 17006KT P6SM SCT080 BKN120
     FM261800 34009KT P6SM VCSH SCT070 BKN120
     FM270300 15006KT P6SM VCSH SCT060 BKN100=



000
FTUS45 KSLC 260906 AAC
TAFSLC
TAF AMD
KSLC 260906Z 2609/2712 17006KT P6SM SCT080 BKN120
     FM261800 34009KT P6SM VCSH SCT070 BKN120
     FM270300 15006KT P6SM VCSH SCT060 BKN100=



000
FTUS45 KSLC 260725 AAA
TAFOGD
TAF AMD
KOGD 260725Z 2607/2706 VRB15G25KT P6SM -TSRA SCT080CB BKN100
     FM260900 17008KT P6SM VCSH SCT080 BKN100
     FM261900 32007KT P6SM VCSH SCT070 BKN120
     FM270300 17008KT P6SM SCT070 BKN120=



000
FTUS45 KSLC 260725 AAA
TAFOGD
TAF AMD
KOGD 260725Z 2607/2706 VRB15G25KT P6SM -TSRA SCT080CB BKN100
     FM260900 17008KT P6SM VCSH SCT080 BKN100
     FM261900 32007KT P6SM VCSH SCT070 BKN120
     FM270300 17008KT P6SM SCT070 BKN120=



000
FTUS45 KSLC 260724 AAC
TAFSLC
TAF AMD
KSLC 260724Z 2607/2712 35015KT P6SM VCTS BKN070CB BKN100
     FM260900 17010KT P6SM SCT080 BKN120
     FM261800 34009KT P6SM VCSH SCT070 BKN120
     FM270300 15006KT P6SM VCSH SCT060 BKN100=



000
FTUS45 KSLC 260724 AAC
TAFSLC
TAF AMD
KSLC 260724Z 2607/2712 35015KT P6SM VCTS BKN070CB BKN100
     FM260900 17010KT P6SM SCT080 BKN120
     FM261800 34009KT P6SM VCSH SCT070 BKN120
     FM270300 15006KT P6SM VCSH SCT060 BKN100=



000
FTUS45 KSLC 260626 AAB
TAFSLC
TAF AMD
KSLC 260626Z 2606/2712 27010KT P6SM VCSH SCT080 BKN120
     FM260900 17010KT P6SM SCT080 BKN120
     FM261800 34009KT P6SM VCSH SCT070 BKN120
     FM270300 15006KT P6SM VCSH SCT060 BKN100=



000
FTUS45 KSLC 260626 AAB
TAFSLC
TAF AMD
KSLC 260626Z 2606/2712 27010KT P6SM VCSH SCT080 BKN120
     FM260900 17010KT P6SM SCT080 BKN120
     FM261800 34009KT P6SM VCSH SCT070 BKN120
     FM270300 15006KT P6SM VCSH SCT060 BKN100=



000
FTUS45 KSLC 260559 AAA
TAFLGU
TAF AMD
KLGU 260559Z 2606/2706 VRB15G25KT P6SM -TSRA SCT070CB BKN100
     FM260700 VRB04KT P6SM SCT070 BKN100
     FM261800 VRB04KT P6SM VCSH SCT070 BKN120=



000
FTUS45 KSLC 260559 AAA
TAFLGU
TAF AMD
KLGU 260559Z 2606/2706 VRB15G25KT P6SM -TSRA SCT070CB BKN100
     FM260700 VRB04KT P6SM SCT070 BKN100
     FM261800 VRB04KT P6SM VCSH SCT070 BKN120=



000
FTUS45 KSLC 260529 CCA
TAFSLC
TAF COR
KSLC 260529Z 2606/2712 04007KT P6SM VCTS SCT080CB BKN100
     FM260630 33010KT P6SM VCSH SCT080 BKN120
     FM260900 17010KT P6SM SCT080 BKN120
     FM261800 34009KT P6SM VCSH SCT070 BKN120
     FM270300 15006KT P6SM VCSH SCT060 BKN100=



000
FTUS45 KSLC 260529 CCA
TAFSLC
TAF COR
KSLC 260529Z 2606/2712 04007KT P6SM VCTS SCT080CB BKN100
     FM260630 33010KT P6SM VCSH SCT080 BKN120
     FM260900 17010KT P6SM SCT080 BKN120
     FM261800 34009KT P6SM VCSH SCT070 BKN120
     FM270300 15006KT P6SM VCSH SCT060 BKN100=



000
FTUS45 KSLC 260523
TAFSLC
TAF
KSLC 260523Z 2606/2712 04007KT P6SM VCTS SCT080CB BKN100
     FM260700 16010KT P6SM VCSH SCT080 BKN120
     FM261800 34009KT P6SM VCSH SCT070 BKN120
     FM270300 15006KT P6SM VCSH SCT060 BKN100=



000
FTUS45 KSLC 260523
TAFOGD
TAF
KOGD 260523Z 2606/2706 14010G21KT P6SM VCTS SCT080CB BKN100
     FM260700 17008KT P6SM VCSH SCT080 BKN100
     FM261900 32007KT P6SM VCSH SCT070 BKN120
     FM270300 17008KT P6SM SCT070 BKN120=



000
FTUS45 KSLC 260523
TAFLGU
TAF
KLGU 260523Z 2606/2706 VRB04KT P6SM SCT070 BKN120
     FM261800 VRB04KT P6SM VCSH SCT070 BKN120=



000
FTUS45 KSLC 260523
TAFSLC
TAF
KSLC 260523Z 2606/2712 04007KT P6SM VCTS SCT080CB BKN100
     FM260700 16010KT P6SM VCSH SCT080 BKN120
     FM261800 34009KT P6SM VCSH SCT070 BKN120
     FM270300 15006KT P6SM VCSH SCT060 BKN100=



000
FTUS45 KSLC 260523
TAFENV
TAF
KENV 260523Z 2606/2706 33008KT P6SM VCSH SCT080 BKN140
     FM261800 10006KT P6SM SCT070 BKN120
     FM270300 36009KT P6SM SCT070 BKN120
      AMD LTD TO CLD VIS AND WIND=



000
FTUS45 KSLC 260523
TAFPVU
TAF
KPVU 260523Z 2606/2706 VRB04KT P6SM SCT080 BKN150
     FM261900 25006KT P6SM VCSH SCT070 BKN120
     FM270300 19010KT P6SM SCT070 BKN120
      AMD LTD TO CLD VIS AND WIND=



000
FTUS45 KSLC 260523
TAFENV
TAF
KENV 260523Z 2606/2706 33008KT P6SM VCSH SCT080 BKN140
     FM261800 10006KT P6SM SCT070 BKN120
     FM270300 36009KT P6SM SCT070 BKN120
      AMD LTD TO CLD VIS AND WIND=



000
FTUS45 KSLC 260523
TAFPVU
TAF
KPVU 260523Z 2606/2706 VRB04KT P6SM SCT080 BKN150
     FM261900 25006KT P6SM VCSH SCT070 BKN120
     FM270300 19010KT P6SM SCT070 BKN120
      AMD LTD TO CLD VIS AND WIND=



000
FTUS45 KSLC 260523
TAFOGD
TAF
KOGD 260523Z 2606/2706 14010G21KT P6SM VCTS SCT080CB BKN100
     FM260700 17008KT P6SM VCSH SCT080 BKN100
     FM261900 32007KT P6SM VCSH SCT070 BKN120
     FM270300 17008KT P6SM SCT070 BKN120=



000
FTUS45 KSLC 260523
TAFLGU
TAF
KLGU 260523Z 2606/2706 VRB04KT P6SM SCT070 BKN120
     FM261800 VRB04KT P6SM VCSH SCT070 BKN120=



000
FTUS45 KSLC 260523
TAFCDC
TAF
KCDC 260523Z 2606/2706 20010KT P6SM FEW080 BKN200
     FM261700 20011G18KT P6SM VCSH SCT070 BKN120
     FM270300 20009KT P6SM SCT070 BKN120=



000
FTUS45 KSLC 260523
TAFSGU
TAF
KSGU 260523Z 2606/2706 VRB04KT P6SM BKN200
     FM261900 22015G25KT P6SM SCT080 BKN120
     FM270200 VRB04KT P6SM SCT080 BKN120
      AMD LTD TO CLD VIS AND WIND=



000
FTUS45 KSLC 260523
TAFCDC
TAF
KCDC 260523Z 2606/2706 20010KT P6SM FEW080 BKN200
     FM261700 20011G18KT P6SM VCSH SCT070 BKN120
     FM270300 20009KT P6SM SCT070 BKN120=



000
FTUS45 KSLC 260523
TAFBCE
TAF
KBCE 260523Z 2606/2706 22008KT P6SM SCT070 BKN200
     FM261700 17011G18KT P6SM VCSH SCT060 BKN100
     FM270200 VRB05KT P6SM SCT060 BKN100=



000
FTUS45 KSLC 260523
TAFSGU
TAF
KSGU 260523Z 2606/2706 VRB04KT P6SM BKN200
     FM261900 22015G25KT P6SM SCT080 BKN120
     FM270200 VRB04KT P6SM SCT080 BKN120
      AMD LTD TO CLD VIS AND WIND=



000
FTUS45 KSLC 260523
TAFBCE
TAF
KBCE 260523Z 2606/2706 22008KT P6SM SCT070 BKN200
     FM261700 17011G18KT P6SM VCSH SCT060 BKN100
     FM270200 VRB05KT P6SM SCT060 BKN100=



000
FTUS45 KSLC 260510 AAC
TAFSLC
TAF AMD
KSLC 260510Z 2605/2706 34007KT P6SM VCTS SCT080CB BKN100
     FM260700 16010KT P6SM SCT080 BKN150
     FM261900 34009KT P6SM VCSH SCT070 BKN120
     FM270300 15006KT P6SM VCSH SCT060 BKN100=



000
FTUS45 KSLC 260510 AAC
TAFSLC
TAF AMD
KSLC 260510Z 2605/2706 34007KT P6SM VCTS SCT080CB BKN100
     FM260700 16010KT P6SM SCT080 BKN150
     FM261900 34009KT P6SM VCSH SCT070 BKN120
     FM270300 15006KT P6SM VCSH SCT060 BKN100=



000
FTUS45 KSLC 260510 AAB
TAFOGD
TAF AMD
KOGD 260510Z 2605/2624 17008KT P6SM VCTS SCT080CB BKN100
     FM260700 17008KT P6SM SCT080 BKN100
     FM261900 32007KT P6SM VCSH SCT070 BKN120=



000
FTUS45 KSLC 260510 AAB
TAFOGD
TAF AMD
KOGD 260510Z 2605/2624 17008KT P6SM VCTS SCT080CB BKN100
     FM260700 17008KT P6SM SCT080 BKN100
     FM261900 32007KT P6SM VCSH SCT070 BKN120=



000
FTUS45 KSLC 260504 AAC
TAFSLC
TAF AMD
KSLC 260504Z 2605/2706 34007KT P6SM FEW080 BKN200
     FM260700 16010KT P6SM SCT080 BKN150
     FM261900 34009KT P6SM VCSH SCT070 BKN120
     FM270300 15006KT P6SM VCSH SCT060 BKN100=



000
FTUS45 KSLC 260504 AAC
TAFSLC
TAF AMD
KSLC 260504Z 2605/2706 34007KT P6SM FEW080 BKN200
     FM260700 16010KT P6SM SCT080 BKN150
     FM261900 34009KT P6SM VCSH SCT070 BKN120
     FM270300 15006KT P6SM VCSH SCT060 BKN100=



000
FTUS45 KSLC 260252 AAB
TAFSLC
TAF AMD
KSLC 260252Z 2603/2706 34007KT P6SM FEW080 BKN200
     FM260400 16010KT P6SM SCT080 BKN150
     FM261900 34009KT P6SM VCSH SCT070 BKN120
     FM270300 15006KT P6SM VCSH SCT060 BKN100=



000
FTUS45 KSLC 260252 AAB
TAFSLC
TAF AMD
KSLC 260252Z 2603/2706 34007KT P6SM FEW080 BKN200
     FM260400 16010KT P6SM SCT080 BKN150
     FM261900 34009KT P6SM VCSH SCT070 BKN120
     FM270300 15006KT P6SM VCSH SCT060 BKN100=



000
FTUS45 KSLC 260251 AAA
TAFOGD
TAF AMD
KOGD 260251Z 2603/2624 17008KT P6SM SCT080 BKN150
     FM261900 32007KT P6SM VCSH SCT070 BKN120=



000
FTUS45 KSLC 260251 AAA
TAFOGD
TAF AMD
KOGD 260251Z 2603/2624 17008KT P6SM SCT080 BKN150
     FM261900 32007KT P6SM VCSH SCT070 BKN120=



000
FTUS45 KSLC 260207 AAA
TAFBCE
TAF AMD
KBCE 260207Z 2602/2624 22008KT P6SM SCT070 BKN200
     FM261700 17011G18KT P6SM VCSH SCT060 BKN110=



000
FTUS45 KSLC 260207 AAA
TAFBCE
TAF AMD
KBCE 260207Z 2602/2624 22008KT P6SM SCT070 BKN200
     FM261700 17011G18KT P6SM VCSH SCT060 BKN110=



000
FTUS45 KSLC 252336
TAFOGD
TAF
KOGD 252336Z 2600/2624 34011KT P6SM FEW080 BKN200
     FM260500 17008KT P6SM SCT080 BKN150
     FM261900 32007KT P6SM VCSH SCT070 BKN120=



000
FTUS45 KSLC 252336
TAFCDC
TAF
KCDC 252336Z 2600/2624 20018G26KT P6SM FEW080 SCT120
     FM260200 17005KT P6SM FEW080 BKN200
     FM261700 20011G18KT P6SM VCSH SCT070 SCT120=



000
FTUS45 KSLC 252336
TAFSLC
TAF
KSLC 252336Z 2600/2706 34010KT P6SM FEW080 BKN200
     FM260400 16010KT P6SM SCT080 BKN150
     FM261900 34009KT P6SM VCSH SCT070 BKN120
     FM270300 15006KT P6SM VCSH SCT060 BKN100=



000
FTUS45 KSLC 252336
TAFSGU
TAF
KSGU 252336Z 2600/2624 22018G28KT P6SM FEW090 SCT140
     FM260300 VRB04KT P6SM BKN200
     FM261900 22015G25KT P6SM SCT080 SCT150
      AMD LTD TO CLD VIS AND WIND=



000
FTUS45 KSLC 252336
TAFENV
TAF
KENV 252336Z 2600/2624 02012KT P6SM FEW080 BKN200
     FM260400 36008KT P6SM VCSH SCT080 BKN140
     FM261800 10006KT P6SM SCT070 BKN120
      AMD LTD TO CLD VIS AND WIND=



000
FTUS45 KSLC 252336
TAFPVU
TAF
KPVU 252336Z 2600/2624 32012KT P6SM SCT080 BKN120
     FM260300 VRB04KT P6SM SCT080 BKN150
     FM261900 25006KT P6SM VCSH SCT070 BKN120
      AMD LTD TO CLD VIS AND WIND=



000
FTUS45 KSLC 252336
TAFBCE
TAF
KBCE 252336Z 2600/2624 19015G23KT P6SM VCSH SCT070 BKN120
     FM260300 22008KT P6SM SCT070 BKN200
     FM261700 17011G18KT P6SM VCSH SCT060 BKN110=



000
FTUS45 KSLC 252336
TAFLGU
TAF
KLGU 252336Z 2600/2624 35012KT P6SM SCT080 BKN200
     FM260300 VRB04KT P6SM SCT070 BKN140=



000
FTUS45 KSLC 252336
TAFBCE
TAF
KBCE 252336Z 2600/2624 19015G23KT P6SM VCSH SCT070 BKN120
     FM260300 22008KT P6SM SCT070 BKN200
     FM261700 17011G18KT P6SM VCSH SCT060 BKN110=



000
FTUS45 KSLC 252336
TAFLGU
TAF
KLGU 252336Z 2600/2624 35012KT P6SM SCT080 BKN200
     FM260300 VRB04KT P6SM SCT070 BKN140=



000
FTUS45 KSLC 252336
TAFCDC
TAF
KCDC 252336Z 2600/2624 20018G26KT P6SM FEW080 SCT120
     FM260200 17005KT P6SM FEW080 BKN200
     FM261700 20011G18KT P6SM VCSH SCT070 SCT120=



000
FTUS45 KSLC 252336
TAFOGD
TAF
KOGD 252336Z 2600/2624 34011KT P6SM FEW080 BKN200
     FM260500 17008KT P6SM SCT080 BKN150
     FM261900 32007KT P6SM VCSH SCT070 BKN120=



000
FTUS45 KSLC 252336
TAFENV
TAF
KENV 252336Z 2600/2624 02012KT P6SM FEW080 BKN200
     FM260400 36008KT P6SM VCSH SCT080 BKN140
     FM261800 10006KT P6SM SCT070 BKN120
      AMD LTD TO CLD VIS AND WIND=



000
FTUS45 KSLC 252336
TAFSLC
TAF
KSLC 252336Z 2600/2706 34010KT P6SM FEW080 BKN200
     FM260400 16010KT P6SM SCT080 BKN150
     FM261900 34009KT P6SM VCSH SCT070 BKN120
     FM270300 15006KT P6SM VCSH SCT060 BKN100=



000
FTUS45 KSLC 252336
TAFSGU
TAF
KSGU 252336Z 2600/2624 22018G28KT P6SM FEW090 SCT140
     FM260300 VRB04KT P6SM BKN200
     FM261900 22015G25KT P6SM SCT080 SCT150
      AMD LTD TO CLD VIS AND WIND=



000
FTUS45 KSLC 252336
TAFPVU
TAF
KPVU 252336Z 2600/2624 32012KT P6SM SCT080 BKN120
     FM260300 VRB04KT P6SM SCT080 BKN150
     FM261900 25006KT P6SM VCSH SCT070 BKN120
      AMD LTD TO CLD VIS AND WIND=



000
FTUS45 KSLC 252050 AAA
TAFOGD
TAF AMD
KOGD 252050Z 2521/2618 34009KT P6SM VCSH SCT080 BKN150
      TEMPO 2521/2523 5SM TSRA BKN070CB
     FM260600 17005KT P6SM SCT100 BKN200=



000
FTUS45 KSLC 252050 AAA
TAFOGD
TAF AMD
KOGD 252050Z 2521/2618 34009KT P6SM VCSH SCT080 BKN150
      TEMPO 2521/2523 5SM TSRA BKN070CB
     FM260600 17005KT P6SM SCT100 BKN200=



000
FTUS45 KSLC 252043 AAC
TAFSLC
TAF AMD
KSLC 252043Z 2521/2624 32010KT P6SM -TSRA FEW050 BKN080CB BKN150
     FM252200 32010KT P6SM VCSH FEW050 SCT080 BKN150
     FM260400 16005KT P6SM VCSH SCT080 BKN120
     FM261900 34009KT P6SM VCSH SCT070 BKN120=



000
FTUS45 KSLC 252043 AAC
TAFSLC
TAF AMD
KSLC 252043Z 2521/2624 32010KT P6SM -TSRA FEW050 BKN080CB BKN150
     FM252200 32010KT P6SM VCSH FEW050 SCT080 BKN150
     FM260400 16005KT P6SM VCSH SCT080 BKN120
     FM261900 34009KT P6SM VCSH SCT070 BKN120=



000
FTUS45 KSLC 251943 AAB
TAFSLC
TAF AMD
KSLC 251943Z 2520/2624 32010KT P6SM VCSH FEW050 SCT080 BKN150
     FM260400 16005KT P6SM VCSH SCT080 BKN120
     FM261900 34009KT P6SM VCSH SCT070 BKN120=



000
FTUS45 KSLC 251943 AAB
TAFSLC
TAF AMD
KSLC 251943Z 2520/2624 32010KT P6SM VCSH FEW050 SCT080 BKN150
     FM260400 16005KT P6SM VCSH SCT080 BKN120
     FM261900 34009KT P6SM VCSH SCT070 BKN120=



000
FTUS45 KSLC 251817 AAA
TAFSLC
TAF AMD
KSLC 251817Z 2518/2624 17015G22KT P6SM SCT080 BKN200
     FM252000 36008KT P6SM SCT080 BKN150
     FM260400 16005KT P6SM VCSH SCT080 BKN120
     FM261900 34009KT P6SM VCSH SCT070 BKN120=



000
FTUS45 KSLC 251739
TAFOGD
TAF
KOGD 251739Z 2518/2618 04006KT P6SM SCT080 BKN150
     FM252000 34009KT P6SM SCT080 BKN150
     FM260600 17005KT P6SM SCT100 BKN200=



000
FTUS45 KSLC 251739
TAFBCE
TAF
KBCE 251739Z 2518/2618 14010G16KT P6SM SCT070
     FM251900 19015G23KT P6SM SCT070 BKN100
     FM260300 19008KT P6SM SCT070 SCT100=



000
FTUS45 KSLC 251739
TAFCDC
TAF

FM261700
 20011G18KT P6SM SCT150=



000
FTUS45 KSLC 251739
TAFCDC
TAF
KCDC 251739Z 2518/2618 20018G26KT P6SM FEW080
     FM260200 17005KT P6SM FEW080 BKN120=



000
FTUS45 KSLC 251739
TAFENV
TAF
KENV 251739Z 2518/2618 02010G17KT P6SM SCT120
     FM252000 08009KT P6SM SCT080 BKN120
     FM260300 36008KT P6SM VCSH SCT080 BKN120
      AMD LTD TO CLD VIS AND WIND=



000
FTUS45 KSLC 251739
TAFSGU
TAF
KSGU 251739Z 2518/2618 VRB04KT P6SM SKC
     FM252000 20018G26KT P6SM FEW080 SCT120
     FM260300 VRB04KT P6SM FEW080 SCT120
      AMD LTD TO CLD VIS AND WIND=



000
FTUS45 KSLC 251739
TAFLGU
TAF
KLGU 251739Z 2518/2618 17009KT P6SM VCSH SCT070 BKN100
     FM260300 VRB04KT P6SM SCT070 BKN110=



000
FTUS45 KSLC 251739
TAFPVU
TAF
KPVU 251739Z 2518/2618 10010KT P6SM SCT080 BKN120
     FM251900 25010KT P6SM VCSH SCT080 BKN110
     FM260300 VRB04KT P6SM SCT080 BKN110
      AMD LTD TO CLD VIS AND WIND=



000
FTUS45 KSLC 251739
TAFSLC
TAF
KSLC 251739Z 2518/2624 36008KT P6SM SCT080 BKN150
     FM260400 16005KT P6SM VCSH SCT080 BKN120
     FM261900 34009KT P6SM VCSH SCT070 BKN120=



000
FTUS45 KSLC 251739
TAFSGU
TAF
KSGU 251739Z 2518/2618 VRB04KT P6SM SKC
     FM252000 20018G26KT P6SM FEW080 SCT120
     FM260300 VRB04KT P6SM FEW080 SCT120
      AMD LTD TO CLD VIS AND WIND=



000
FTUS45 KSLC 251739
TAFOGD
TAF
KOGD 251739Z 2518/2618 04006KT P6SM SCT080 BKN150
     FM252000 34009KT P6SM SCT080 BKN150
     FM260600 17005KT P6SM SCT100 BKN200=



000
FTUS45 KSLC 251739
TAFPVU
TAF
KPVU 251739Z 2518/2618 10010KT P6SM SCT080 BKN120
     FM251900 25010KT P6SM VCSH SCT080 BKN110
     FM260300 VRB04KT P6SM SCT080 BKN110
      AMD LTD TO CLD VIS AND WIND=



000
FTUS45 KSLC 251739
TAFBCE
TAF
KBCE 251739Z 2518/2618 14010G16KT P6SM SCT070
     FM251900 19015G23KT P6SM SCT070 BKN100
     FM260300 19008KT P6SM SCT070 SCT100=



000
FTUS45 KSLC 251739
TAFSLC
TAF
KSLC 251739Z 2518/2624 36008KT P6SM SCT080 BKN150
     FM260400 16005KT P6SM VCSH SCT080 BKN120
     FM261900 34009KT P6SM VCSH SCT070 BKN120=



000
FTUS45 KSLC 251739
TAFCDC
TAF

FM261700
 20011G18KT P6SM SCT150=



000
FTUS45 KSLC 251739
TAFENV
TAF
KENV 251739Z 2518/2618 02010G17KT P6SM SCT120
     FM252000 08009KT P6SM SCT080 BKN120
     FM260300 36008KT P6SM VCSH SCT080 BKN120
      AMD LTD TO CLD VIS AND WIND=



000
FTUS45 KSLC 251739
TAFCDC
TAF
KCDC 251739Z 2518/2618 20018G26KT P6SM FEW080
     FM260200 17005KT P6SM FEW080 BKN120=



000
FTUS45 KSLC 251739
TAFLGU
TAF
KLGU 251739Z 2518/2618 17009KT P6SM VCSH SCT070 BKN100
     FM260300 VRB04KT P6SM SCT070 BKN110=



000
FTUS45 KSLC 251613 AAA
TAFLGU
TAF AMD
KLGU 251613Z 2516/2612 17010G17KT P6SM VCSH SCT070 BKN100
     FM260000 17006KT P6SM VCSH SCT070 BKN100
     FM260300 VRB04KT P6SM SCT070 BKN110=



000
FTUS45 KSLC 251613 AAA
TAFLGU
TAF AMD
KLGU 251613Z 2516/2612 17010G17KT P6SM VCSH SCT070 BKN100
     FM260000 17006KT P6SM VCSH SCT070 BKN100
     FM260300 VRB04KT P6SM SCT070 BKN110=



000
FTUS45 KSLC 251606 AAA
TAFBCE
TAF AMD
KBCE 251606Z 2516/2612 14010G16KT P6SM SCT070
     FM251900 19015G23KT P6SM SCT070 BKN100
     FM260300 19008KT P6SM SCT070 SCT100=



000
FTUS45 KSLC 251606 AAA
TAFBCE
TAF AMD
KBCE 251606Z 2516/2612 14010G16KT P6SM SCT070
     FM251900 19015G23KT P6SM SCT070 BKN100
     FM260300 19008KT P6SM SCT070 SCT100=



000
FTUS45 KSLC 251554 AAA
TAFCDC
TAF AMD
KCDC 251554Z 2516/2612 20018G26KT P6SM SKC
     FM260200 17005KT P6SM FEW080 BKN120=



000
FTUS45 KSLC 251554 AAA
TAFCDC
TAF AMD
KCDC 251554Z 2516/2612 20018G26KT P6SM SKC
     FM260200 17005KT P6SM FEW080 BKN120=



000
FTUS45 KSLC 251520 AAA
TAFENV
TAF AMD
KENV 251520Z 2515/2612 02010G17KT P6SM SCT120
     FM251800 12010KT P6SM VCSH SCT080 BKN120
     FM260300 36008KT P6SM SCT080 BKN120
      AMD LTD TO CLD VIS AND WIND=



000
FTUS45 KSLC 251520 AAA
TAFENV
TAF AMD
KENV 251520Z 2515/2612 02010G17KT P6SM SCT120
     FM251800 12010KT P6SM VCSH SCT080 BKN120
     FM260300 36008KT P6SM SCT080 BKN120
      AMD LTD TO CLD VIS AND WIND=



000
FTUS45 KSLC 251455 AAB
TAFSLC
TAF AMD
KSLC 251455Z 2515/2618 16008KT P6SM SCT120 BKN200
     FM251600 15015G22KT P6SM SCT120 SCT200
     FM252200 33010KT P6SM SCT080 BKN100
     FM260300 16007KT P6SM SCT080 BKN120=



000
FTUS45 KSLC 251455 AAB
TAFSLC
TAF AMD
KSLC 251455Z 2515/2618 16008KT P6SM SCT120 BKN200
     FM251600 15015G22KT P6SM SCT120 SCT200
     FM252200 33010KT P6SM SCT080 BKN100
     FM260300 16007KT P6SM SCT080 BKN120=



000
FTUS45 KSLC 251324 AAA
TAFSLC
TAF AMD
KSLC 251324Z 2513/2618 15015G22KT P6SM SCT120
     FM252200 33010KT P6SM SCT080 BKN100
     FM260300 16007KT P6SM SCT080 BKN120=



000
FTUS45 KSLC 251324 AAA
TAFSLC
TAF AMD
KSLC 251324Z 2513/2618 15015G22KT P6SM SCT120
     FM252200 33010KT P6SM SCT080 BKN100
     FM260300 16007KT P6SM SCT080 BKN120=



000
FTUS45 KSLC 251120
TAFENV
TAF
KENV 251120Z 2512/2612 VRB04KT P6SM SCT120
     FM251800 12010KT P6SM VCSH SCT080 BKN120
     FM260300 36008KT P6SM SCT080 BKN120
      AMD LTD TO CLD VIS AND WIND=



000
FTUS45 KSLC 251120
TAFBCE
TAF
KBCE 251120Z 2512/2612 25005KT P6SM FEW070 SCT110
     FM251800 19015G23KT P6SM VCSH FEW070 SCT100
     FM260300 19008KT P6SM SCT070 SCT100=



000
FTUS45 KSLC 251120
TAFENV
TAF
KENV 251120Z 2512/2612 VRB04KT P6SM SCT120
     FM251800 12010KT P6SM VCSH SCT080 BKN120
     FM260300 36008KT P6SM SCT080 BKN120
      AMD LTD TO CLD VIS AND WIND=



000
FTUS45 KSLC 251120
TAFOGD
TAF
KOGD 251120Z 2512/2612 17004KT P6SM SCT120
     FM251900 32010KT P6SM VCSH SCT080 BKN100
     FM260300 17004KT P6SM SCT080 BKN110=



000
FTUS45 KSLC 251120
TAFCDC
TAF
KCDC 251120Z 2512/2612 19009KT P6SM SCT120
     FM251800 20018G26KT P6SM FEW080 BKN120
     FM260300 17005KT P6SM FEW080 BKN120=



000
FTUS45 KSLC 251120
TAFPVU
TAF
KPVU 251120Z 2512/2612 10010KT P6SM SCT080 BKN120
     FM251900 25010KT P6SM VCSH SCT080 BKN110
     FM260300 VRB04KT P6SM SCT080 BKN110
      AMD LTD TO CLD VIS AND WIND=



000
FTUS45 KSLC 251120
TAFSLC
TAF
KSLC 251120Z 2512/2618 15015G22KT P6SM SCT120
     FM251900 33010KT P6SM VCSH SCT080 BKN100
     FM260300 16007KT P6SM SCT080 BKN120=



000
FTUS45 KSLC 251120
TAFLGU
TAF
KLGU 251120Z 2512/2612 VRB15G25KT P6SM VCTS SCT080CB BKN100
     FM251230 VRB05KT P6SM VCSH SCT080 BKN100
     FM251800 17006KT P6SM VCSH SCT070 BKN100
     FM260000 17006KT P6SM VCSH SCT070 BKN100
     FM260300 VRB04KT P6SM SCT070 BKN110=



000
FTUS45 KSLC 251120
TAFSGU
TAF
KSGU 251120Z 2512/2612 VRB04KT P6SM SKC
     FM252000 20018G26KT P6SM FEW080 SCT120
     FM260300 VRB04KT P6SM FEW080 SCT120
      AMD LTD TO CLD VIS AND WIND=



000
FTUS45 KSLC 251120
TAFOGD
TAF
KOGD 251120Z 2512/2612 17004KT P6SM SCT120
     FM251900 32010KT P6SM VCSH SCT080 BKN100
     FM260300 17004KT P6SM SCT080 BKN110=



000
FTUS45 KSLC 251120
TAFSLC
TAF
KSLC 251120Z 2512/2618 15015G22KT P6SM SCT120
     FM251900 33010KT P6SM VCSH SCT080 BKN100
     FM260300 16007KT P6SM SCT080 BKN120=



000
FTUS45 KSLC 251120
TAFBCE
TAF
KBCE 251120Z 2512/2612 25005KT P6SM FEW070 SCT110
     FM251800 19015G23KT P6SM VCSH FEW070 SCT100
     FM260300 19008KT P6SM SCT070 SCT100=



000
FTUS45 KSLC 251120
TAFLGU
TAF
KLGU 251120Z 2512/2612 VRB15G25KT P6SM VCTS SCT080CB BKN100
     FM251230 VRB05KT P6SM VCSH SCT080 BKN100
     FM251800 17006KT P6SM VCSH SCT070 BKN100
     FM260000 17006KT P6SM VCSH SCT070 BKN100
     FM260300 VRB04KT P6SM SCT070 BKN110=



000
FTUS45 KSLC 251120
TAFSGU
TAF
KSGU 251120Z 2512/2612 VRB04KT P6SM SKC
     FM252000 20018G26KT P6SM FEW080 SCT120
     FM260300 VRB04KT P6SM FEW080 SCT120
      AMD LTD TO CLD VIS AND WIND=



000
FTUS45 KSLC 251120
TAFCDC
TAF
KCDC 251120Z 2512/2612 19009KT P6SM SCT120
     FM251800 20018G26KT P6SM FEW080 BKN120
     FM260300 17005KT P6SM FEW080 BKN120=



000
FTUS45 KSLC 251120
TAFPVU
TAF
KPVU 251120Z 2512/2612 10010KT P6SM SCT080 BKN120
     FM251900 25010KT P6SM VCSH SCT080 BKN110
     FM260300 VRB04KT P6SM SCT080 BKN110
      AMD LTD TO CLD VIS AND WIND=



000
FTUS45 KSLC 251041 AAA
TAFLGU
TAF AMD
KLGU 251041Z 2511/2606 26020KT P6SM -TSRA SCT080 BKN100CB
     FM251100 VRB05KT P6SM SCT080 BKN140
     FM251800 17006KT P6SM VCSH SCT070 BKN110
     FM260300 VRB04KT P6SM SCT070 BKN110=



000
FTUS45 KSLC 251041 AAA
TAFLGU
TAF AMD
KLGU 251041Z 2511/2606 26020KT P6SM -TSRA SCT080 BKN100CB
     FM251100 VRB05KT P6SM SCT080 BKN140
     FM251800 17006KT P6SM VCSH SCT070 BKN110
     FM260300 VRB04KT P6SM SCT070 BKN110=



000
FTUS45 KSLC 250905 AAC
TAFSLC
TAF AMD
KSLC 250905Z 2509/2612 15015KT P6SM SCT120
     FM251900 33010KT P6SM VCSH SCT080 BKN120
     FM260300 16007KT P6SM SCT080 BKN120=



000
FTUS45 KSLC 250905 AAC
TAFSLC
TAF AMD
KSLC 250905Z 2509/2612 15015KT P6SM SCT120
     FM251900 33010KT P6SM VCSH SCT080 BKN120
     FM260300 16007KT P6SM SCT080 BKN120=



000
FTUS45 KSLC 250902 AAB
TAFPVU
TAF AMD
KPVU 250902Z 2509/2606 17010KT P6SM SCT080 BKN120
     FM251000 VRB05KT P6SM SCT080 BKN120
     FM251900 25010KT P6SM VCSH SCT080 BKN110
     FM260300 VRB04KT P6SM SCT080 BKN110
      AMD LTD TO CLD VIS AND WIND=



000
FTUS45 KSLC 250902 AAB
TAFPVU
TAF AMD
KPVU 250902Z 2509/2606 17010KT P6SM SCT080 BKN120
     FM251000 VRB05KT P6SM SCT080 BKN120
     FM251900 25010KT P6SM VCSH SCT080 BKN110
     FM260300 VRB04KT P6SM SCT080 BKN110
      AMD LTD TO CLD VIS AND WIND=



000
FTUS45 KSLC 250715 AAA
TAFENV
TAF AMD
KENV 250715Z 2507/2606 01015G18KT P6SM SCT120
     FM250900 VRB04KT P6SM SCT120
     FM251800 12010KT P6SM VCSH SCT080 BKN120
     FM260300 36008KT P6SM SCT080 BKN120
      AMD LTD TO CLD VIS AND WIND=



000
FTUS45 KSLC 250715 AAA
TAFENV
TAF AMD
KENV 250715Z 2507/2606 01015G18KT P6SM SCT120
     FM250900 VRB04KT P6SM SCT120
     FM251800 12010KT P6SM VCSH SCT080 BKN120
     FM260300 36008KT P6SM SCT080 BKN120
      AMD LTD TO CLD VIS AND WIND=



000
FTUS45 KSLC 250624 AAA
TAFPVU
TAF AMD
KPVU 250624Z 2506/2606 35015G30KT P6SM SCT040 BKN050
     FM250800 25010KT P6SM SCT080 BKN120
     FM251000 VRB05KT P6SM SCT080 BKN120
     FM251900 25010KT P6SM VCSH SCT080 BKN110
     FM260300 VRB04KT P6SM SCT080 BKN110
      AMD LTD TO CLD VIS AND WIND=



000
FTUS45 KSLC 250624 AAA
TAFPVU
TAF AMD
KPVU 250624Z 2506/2606 35015G30KT P6SM SCT040 BKN050
     FM250800 25010KT P6SM SCT080 BKN120
     FM251000 VRB05KT P6SM SCT080 BKN120
     FM251900 25010KT P6SM VCSH SCT080 BKN110
     FM260300 VRB04KT P6SM SCT080 BKN110
      AMD LTD TO CLD VIS AND WIND=



000
FTUS45 KSLC 250623 AAA
TAFSLC
TAF AMD
KSLC 250623Z 2506/2612 15015KT P6SM SCT120
     FM251900 33010KT P6SM VCSH SCT080 BKN120
     FM260300 16007KT P6SM SCT080 BKN120=



000
FTUS45 KSLC 250623 AAA
TAFSLC
TAF AMD
KSLC 250623Z 2506/2612 15015KT P6SM SCT120
     FM251900 33010KT P6SM VCSH SCT080 BKN120
     FM260300 16007KT P6SM SCT080 BKN120=



000
FTUS45 KSLC 250532
TAFLGU
TAF
KLGU 250532Z 2506/2606 23008KT P6SM SCT120
     FM250800 VRB05KT P6SM SCT080 BKN140
     FM251800 17006KT P6SM VCSH SCT070 BKN110
     FM260300 VRB04KT P6SM SCT070 BKN110=



000
FTUS45 KSLC 250532
TAFENV
TAF
KENV 250532Z 2506/2606 VRB05KT P6SM SCT120
     FM251800 12010KT P6SM VCSH SCT080 BKN120
     FM260300 36008KT P6SM SCT080 BKN120
      AMD LTD TO CLD VIS AND WIND=



000
FTUS45 KSLC 250532
TAFBCE
TAF
KBCE 250532Z 2506/2606 25005KT P6SM FEW070 SCT110
     FM251800 19015G23KT P6SM VCSH FEW070 SCT100
     FM260300 19008KT P6SM SCT070 SCT100=



000
FTUS45 KSLC 250532
TAFCDC
TAF
KCDC 250532Z 2506/2606 17005KT P6SM SCT120
     FM251800 20018G26KT P6SM VCSH FEW080 BKN120
     FM260300 17005KT P6SM FEW080 BKN120=



000
FTUS45 KSLC 250532
TAFOGD
TAF
KOGD 250532Z 2506/2606 17004KT P6SM SCT120
     FM251900 32010KT P6SM VCSH SCT080 BKN110
     FM260300 17004KT P6SM SCT080 BKN110=



000
FTUS45 KSLC 250532
TAFSLC
TAF
KSLC 250532Z 2506/2612 25006KT P6SM SCT120
     FM250700 15007KT P6SM SCT120
     FM251900 33010KT P6SM VCSH SCT080 BKN120
     FM260300 16007KT P6SM SCT080 BKN120=



000
FTUS45 KSLC 250532
TAFSGU
TAF
KSGU 250532Z 2506/2606 VRB04KT P6SM SKC
     FM252000 20018G26KT P6SM FEW080 SCT120
     FM260300 VRB04KT P6SM FEW080 SCT120
      AMD LTD TO CLD VIS AND WIND=



000
FTUS45 KSLC 250532
TAFPVU
TAF
KPVU 250532Z 2506/2606 15010G17KT P6SM SCT080 BKN120
     FM251000 VRB05KT P6SM SCT080 BKN120
     FM251900 25010KT P6SM VCSH SCT080 BKN110
     FM260300 VRB04KT P6SM SCT080 BKN110
      AMD LTD TO CLD VIS AND WIND=



000
FTUS45 KSLC 250532
TAFBCE
TAF
KBCE 250532Z 2506/2606 25005KT P6SM FEW070 SCT110
     FM251800 19015G23KT P6SM VCSH FEW070 SCT100
     FM260300 19008KT P6SM SCT070 SCT100=



000
FTUS45 KSLC 250532
TAFCDC
TAF
KCDC 250532Z 2506/2606 17005KT P6SM SCT120
     FM251800 20018G26KT P6SM VCSH FEW080 BKN120
     FM260300 17005KT P6SM FEW080 BKN120=



000
FTUS45 KSLC 250532
TAFPVU
TAF
KPVU 250532Z 2506/2606 15010G17KT P6SM SCT080 BKN120
     FM251000 VRB05KT P6SM SCT080 BKN120
     FM251900 25010KT P6SM VCSH SCT080 BKN110
     FM260300 VRB04KT P6SM SCT080 BKN110
      AMD LTD TO CLD VIS AND WIND=



000
FTUS45 KSLC 250532
TAFSGU
TAF
KSGU 250532Z 2506/2606 VRB04KT P6SM SKC
     FM252000 20018G26KT P6SM FEW080 SCT120
     FM260300 VRB04KT P6SM FEW080 SCT120
      AMD LTD TO CLD VIS AND WIND=



000
FTUS45 KSLC 250532
TAFLGU
TAF
KLGU 250532Z 2506/2606 23008KT P6SM SCT120
     FM250800 VRB05KT P6SM SCT080 BKN140
     FM251800 17006KT P6SM VCSH SCT070 BKN110
     FM260300 VRB04KT P6SM SCT070 BKN110=



000
FTUS45 KSLC 250532
TAFENV
TAF
KENV 250532Z 2506/2606 VRB05KT P6SM SCT120
     FM251800 12010KT P6SM VCSH SCT080 BKN120
     FM260300 36008KT P6SM SCT080 BKN120
      AMD LTD TO CLD VIS AND WIND=



000
FTUS45 KSLC 250532
TAFSLC
TAF
KSLC 250532Z 2506/2612 25006KT P6SM SCT120
     FM250700 15007KT P6SM SCT120
     FM251900 33010KT P6SM VCSH SCT080 BKN120
     FM260300 16007KT P6SM SCT080 BKN120=



000
FTUS45 KSLC 250532
TAFOGD
TAF
KOGD 250532Z 2506/2606 17004KT P6SM SCT120
     FM251900 32010KT P6SM VCSH SCT080 BKN110
     FM260300 17004KT P6SM SCT080 BKN110=



000
FTUS45 KSLC 250308 AAB
TAFPVU
TAF AMD
KPVU 250308Z 2503/2524 35006KT P6SM VCTS SCT090CB BKN100
      TEMPO 2503/2505 VRB20G30KT -TSRA BKN090CB
     FM250500 13005KT P6SM SCT120
     FM251200 13008KT P6SM SCT080 BKN120
     FM251900 25010KT P6SM VCSH SCT080 BKN110
      AMD LTD TO CLD VIS AND WIND=



000
FTUS45 KSLC 250308 AAB
TAFPVU
TAF AMD
KPVU 250308Z 2503/2524 35006KT P6SM VCTS SCT090CB BKN100
      TEMPO 2503/2505 VRB20G30KT -TSRA BKN090CB
     FM250500 13005KT P6SM SCT120
     FM251200 13008KT P6SM SCT080 BKN120
     FM251900 25010KT P6SM VCSH SCT080 BKN110
      AMD LTD TO CLD VIS AND WIND=



000
FTUS45 KSLC 250251 AAB
TAFSLC
TAF AMD
KSLC 250251Z 2503/2606 35005KT P6SM FEW080 SCT120
     FM250400 15007KT P6SM SCT120
     FM251900 33010KT P6SM VCSH SCT080 BKN120=



000
FTUS45 KSLC 250251 AAB
TAFSLC
TAF AMD
KSLC 250251Z 2503/2606 35005KT P6SM FEW080 SCT120
     FM250400 15007KT P6SM SCT120
     FM251900 33010KT P6SM VCSH SCT080 BKN120=



000
FTUS45 KSLC 250141 AAA
TAFSGU
TAF AMD
KSGU 250141Z 2502/2524 24011KT P6SM SCT120
     FM250400 VRB04KT P6SM SKC
     FM251800 20018G26KT P6SM FEW080 SCT120
      AMD LTD TO CLD VIS AND WIND=



000
FTUS45 KSLC 250141 AAA
TAFSGU
TAF AMD
KSGU 250141Z 2502/2524 24011KT P6SM SCT120
     FM250400 VRB04KT P6SM SKC
     FM251800 20018G26KT P6SM FEW080 SCT120
      AMD LTD TO CLD VIS AND WIND=



000
FTUS45 KSLC 250125 AAA
TAFPVU
TAF AMD
KPVU 250125Z 2501/2524 35006KT P6SM VCSH SCT090 SCT140
      TEMPO 2501/2503 VRB20G30KT -TSRA BKN090CB
     FM250300 13005KT P6SM SCT120
     FM251200 13008KT P6SM SCT080 BKN120
     FM251900 25010KT P6SM VCSH SCT080 BKN110
      AMD LTD TO CLD VIS AND WIND=



000
FTUS45 KSLC 250125 AAA
TAFPVU
TAF AMD
KPVU 250125Z 2501/2524 35006KT P6SM VCSH SCT090 SCT140
      TEMPO 2501/2503 VRB20G30KT -TSRA BKN090CB
     FM250300 13005KT P6SM SCT120
     FM251200 13008KT P6SM SCT080 BKN120
     FM251900 25010KT P6SM VCSH SCT080 BKN110
      AMD LTD TO CLD VIS AND WIND=



000
FTUS45 KSLC 242322
TAFBCE
TAF
KBCE 242322Z 2500/2524 22011G18KT P6SM BKN070 BKN100
     FM250300 25005KT P6SM FEW070 SCT110
     FM251800 19015G23KT P6SM FEW070 SCT100=



000
FTUS45 KSLC 242322
TAFSLC
TAF
KSLC 242322Z 2500/2606 35005KT P6SM FEW080 SCT120
     FM250300 15007KT P6SM SCT120
     FM251900 33010KT P6SM VCSH SCT080 BKN120=



000
FTUS45 KSLC 242322
TAFCDC
TAF
KCDC 242322Z 2500/2524 21012G18KT P6SM SCT120
     FM250300 17005KT P6SM SCT120
     FM251800 20018G26KT P6SM FEW080 SCT120=



000
FTUS45 KSLC 242322
TAFOGD
TAF
KOGD 242322Z 2500/2524 30006KT P6SM SCT120
     FM250300 17004KT P6SM SCT120
     FM251000 17006KT P6SM SCT080 BKN140
     FM251900 32010KT P6SM VCSH SCT080 BKN110=



000
FTUS45 KSLC 242322
TAFENV
TAF
KENV 242322Z 2500/2524 12008KT P6SM SCT120
     FM250300 VRB05KT P6SM SCT120
     FM251000 VRB03KT P6SM SCT120 BKN180
     FM251800 12010KT P6SM VCSH SCT080 BKN120
      AMD LTD TO CLD VIS AND WIND=



000
FTUS45 KSLC 242322
TAFSGU
TAF
KSGU 242322Z 2500/2524 VRB05KT P6SM SKC
     FM250300 24010KT P6SM SCT120
     FM251800 20018G26KT P6SM FEW080 SCT120
      AMD LTD TO CLD VIS AND WIND=



000
FTUS45 KSLC 242322
TAFPVU
TAF
KPVU 242322Z 2500/2524 29009KT P6SM SCT090 SCT140
     FM250300 13005KT P6SM SCT120
     FM251200 13008KT P6SM SCT080 BKN120
     FM251900 25010KT P6SM VCSH SCT080 BKN110
      AMD LTD TO CLD VIS AND WIND=



000
FTUS45 KSLC 242322
TAFLGU
TAF
KLGU 242322Z 2500/2524 21008KT P6SM SCT120
     FM250800 VRB03KT P6SM SCT080 BKN140
     FM251800 17006KT P6SM VCSH SCT070 BKN110=



000
FTUS45 KSLC 242322
TAFOGD
TAF
KOGD 242322Z 2500/2524 30006KT P6SM SCT120
     FM250300 17004KT P6SM SCT120
     FM251000 17006KT P6SM SCT080 BKN140
     FM251900 32010KT P6SM VCSH SCT080 BKN110=



000
FTUS45 KSLC 242322
TAFCDC
TAF
KCDC 242322Z 2500/2524 21012G18KT P6SM SCT120
     FM250300 17005KT P6SM SCT120
     FM251800 20018G26KT P6SM FEW080 SCT120=



000
FTUS45 KSLC 242322
TAFSGU
TAF
KSGU 242322Z 2500/2524 VRB05KT P6SM SKC
     FM250300 24010KT P6SM SCT120
     FM251800 20018G26KT P6SM FEW080 SCT120
      AMD LTD TO CLD VIS AND WIND=



000
FTUS45 KSLC 242322
TAFLGU
TAF
KLGU 242322Z 2500/2524 21008KT P6SM SCT120
     FM250800 VRB03KT P6SM SCT080 BKN140
     FM251800 17006KT P6SM VCSH SCT070 BKN110=



000
FTUS45 KSLC 242322
TAFPVU
TAF
KPVU 242322Z 2500/2524 29009KT P6SM SCT090 SCT140
     FM250300 13005KT P6SM SCT120
     FM251200 13008KT P6SM SCT080 BKN120
     FM251900 25010KT P6SM VCSH SCT080 BKN110
      AMD LTD TO CLD VIS AND WIND=



000
FTUS45 KSLC 242322
TAFENV
TAF
KENV 242322Z 2500/2524 12008KT P6SM SCT120
     FM250300 VRB05KT P6SM SCT120
     FM251000 VRB03KT P6SM SCT120 BKN180
     FM251800 12010KT P6SM VCSH SCT080 BKN120
      AMD LTD TO CLD VIS AND WIND=



000
FTUS45 KSLC 242322
TAFSLC
TAF
KSLC 242322Z 2500/2606 35005KT P6SM FEW080 SCT120
     FM250300 15007KT P6SM SCT120
     FM251900 33010KT P6SM VCSH SCT080 BKN120=



000
FTUS45 KSLC 242322
TAFBCE
TAF
KBCE 242322Z 2500/2524 22011G18KT P6SM BKN070 BKN100
     FM250300 25005KT P6SM FEW070 SCT110
     FM251800 19015G23KT P6SM FEW070 SCT100=



    US Dept of Commerce
    National Oceanic and Atmospheric Administration
    National Weather Service
    1325 East West Highway
    Silver Spring, MD 20910
    Page Author: NWS Internet Services Team
Disclaimer
Information Quality
Credits
Glossary
Privacy Policy
Freedom of Information Act (FOIA)
About Us
Career Opportunities